Time,TemperatureF,DewpointF,PressureIn,WindDirection,WindDirectionDegrees,WindSpeedMPH,WindSpeedGustMPH,Humidity,HourlyPrecipIn,Conditions,Clouds,dailyrainin,SolarRadiationWatts/m^2,SoftwareType,DateUTC
2013-02-08 00:00:00,-0.9,-5.1,29.00,WSW,254,0.0,0.0,82,0.00,,,0.00,0,Wunderground v.1.15,2013-02-08 06:00:00,
2013-02-08 00:01:00,-0.9,-5.3,29.00,WSW,254,0.0,0.0,81,0.00,,,0.00,0,Wunderground v.1.15,2013-02-08 06:01:00,
2013-02-08 00:06:00,-0.7,-4.9,29.00,WSW,253,0.0,0.0,82,0.00,,,0.00,0,Wunderground v.1.15,2013-02-08 06:06:00,
2013-02-08 00:11:00,-0.5,-4.7,29.00,WSW,247,0.0,1.0,82,0.00,,,0.00,0,Wunderground v.1.15,2013-02-08 06:11:00,
2013-02-08 00:13:00,-0.5,-4.7,29.00,WSW,247,0.0,1.0,82,0.00,,,0.00,0,Wunderground v.1.15,2013-02-08 06:13:00,
2013-02-08 00:17:00,-0.4,-4.6,29.00,SSE,153,0.0,1.0,82,0.00,,,0.00,0,Wunderground v.1.15,2013-02-08 06:17:00,
2013-02-08 00:19:00,-0.3,-4.5,29.00,SSE,161,0.0,1.0,82,0.00,,,0.00,0,Wunderground v.1.15,2013-02-08 06:19:00,
2013-02-08 00:22:00,-0.2,-4.4,29.00,SSE,161,0.0,0.0,82,0.00,,,0.00,0,Wunderground v.1.15,2013-02-08 06:22:00,
2013-02-08 00:27:00,-0.1,-4.3,29.01,SSE,160,0.0,0.0,82,0.00,,,0.00,0,Wunderground v.1.15,2013-02-08 06:27:00,
2013-02-08 00:28:00,-0.1,-4.3,29.01,SSE,160,0.0,0.0,82,0.00,,,0.00,0,Wunderground v.1.15,2013-02-08 06:28:00,
2013-02-08 00:29:00,-0.1,-4.3,29.01,SSE,160,0.0,0.0,82,0.00,,,0.00,0,Wunderground v.1.15,2013-02-08 06:29:00,
2013-02-08 00:31:00,-0.2,-4.4,29.01,SSE,160,0.0,0.0,82,0.00,,,0.00,0,Wunderground v.1.15,2013-02-08 06:31:00,
2013-02-08 00:33:00,-0.2,-4.4,29.01,SSE,160,0.0,0.0,82,0.00,,,0.00,0,Wunderground v.1.15,2013-02-08 06:33:00,
2013-02-08 00:35:00,-0.4,-4.8,29.01,SSE,160,0.0,0.0,81,0.00,,,0.00,0,Wunderground v.1.15,2013-02-08 06:35:00,
2013-02-08 00:36:00,-0.4,-4.6,29.01,SSE,160,0.0,0.0,82,0.00,,,0.00,0,Wunderground v.1.15,2013-02-08 06:36:00,
2013-02-08 00:40:00,-0.5,-4.7,29.01,SSE,160,0.0,0.0,82,0.00,,,0.00,0,Wunderground v.1.15,2013-02-08 06:40:00,
2013-02-08 00:43:00,-0.5,-4.9,29.01,SSE,160,0.0,0.0,81,0.00,,,0.00,0,Wunderground v.1.15,2013-02-08 06:43:00,
2013-02-08 00:45:00,-0.4,-4.6,29.01,SSE,160,0.0,0.0,82,0.00,,,0.00,0,Wunderground v.1.15,2013-02-08 06:45:00,
2013-02-08 00:49:00,0.3,-3.6,29.01,SSE,160,0.0,0.0,83,0.00,,,0.00,0,Wunderground v.1.15,2013-02-08 06:49:00,
2013-02-08 00:50:00,0.7,-3.3,29.01,SSE,160,0.0,0.0,83,0.00,,,0.00,0,Wunderground v.1.15,2013-02-08 06:50:00,
2013-02-08 00:51:00,0.9,-2.8,29.00,SSE,160,0.0,0.0,84,0.00,,,0.00,0,Wunderground v.1.15,2013-02-08 06:51:00,
2013-02-08 00:52:00,1.0,-2.7,29.00,SSE,160,0.0,0.0,84,0.00,,,0.00,0,Wunderground v.1.15,2013-02-08 06:52:00,
2013-02-08 00:55:00,1.0,-3.0,29.00,SSE,160,0.0,0.0,83,0.00,,,0.00,0,Wunderground v.1.15,2013-02-08 06:55:00,
2013-02-08 00:59:00,0.4,-3.8,29.00,SSE,160,0.0,0.0,82,0.00,,,0.00,0,Wunderground v.1.15,2013-02-08 06:59:00,
2013-02-08 01:01:00,0.3,-3.9,29.00,SSE,160,0.0,0.0,82,0.00,,,0.00,0,Wunderground v.1.15,2013-02-08 07:01:00,
2013-02-08 01:02:00,0.3,-3.9,29.00,SSE,160,0.0,0.0,82,0.00,,,0.00,0,Wunderground v.1.15,2013-02-08 07:02:00,
2013-02-08 01:06:00,0.1,-4.1,29.00,SSE,160,0.0,0.0,82,0.00,,,0.00,0,Wunderground v.1.15,2013-02-08 07:06:00,
2013-02-08 01:07:00,-0.2,-4.4,29.00,SSE,160,0.0,0.0,82,0.00,,,0.00,0,Wunderground v.1.15,2013-02-08 07:07:00,
2013-02-08 01:10:00,-0.6,-5.0,29.00,SSE,160,0.0,0.0,81,0.00,,,0.00,0,Wunderground v.1.15,2013-02-08 07:10:00,
2013-02-08 01:13:00,-0.7,-5.1,29.00,SSE,160,0.0,0.0,81,0.00,,,0.00,0,Wunderground v.1.15,2013-02-08 07:13:00,
2013-02-08 01:15:00,-0.7,-4.9,29.00,SSE,160,0.0,0.0,82,0.00,,,0.00,0,Wunderground v.1.15,2013-02-08 07:15:00,
2013-02-08 01:16:00,-0.8,-5.0,29.00,SSE,160,0.0,0.0,82,0.00,,,0.00,0,Wunderground v.1.15,2013-02-08 07:16:00,
2013-02-08 01:21:00,-1.5,-6.2,28.99,SSE,160,0.0,0.0,80,0.00,,,0.00,0,Wunderground v.1.15,2013-02-08 07:21:00,
2013-02-08 01:22:00,-1.6,-6.0,28.99,SSE,160,0.0,0.0,81,0.00,,,0.00,0,Wunderground v.1.15,2013-02-08 07:22:00,
2013-02-08 01:25:00,-1.8,-6.2,28.99,SSE,160,0.0,0.0,81,0.00,,,0.00,0,Wunderground v.1.15,2013-02-08 07:25:00,
2013-02-08 01:26:00,-1.9,-6.3,28.99,SSE,160,0.0,0.0,81,0.00,,,0.00,0,Wunderground v.1.15,2013-02-08 07:26:00,
2013-02-08 01:27:00,-1.9,-6.3,28.99,SSE,160,0.0,0.0,81,0.00,,,0.00,0,Wunderground v.1.15,2013-02-08 07:27:00,
2013-02-08 01:29:00,-1.8,-6.2,28.99,SSE,160,0.0,0.0,81,0.00,,,0.00,0,Wunderground v.1.15,2013-02-08 07:29:00,
2013-02-08 01:32:00,-1.9,-6.3,28.99,SSE,160,0.0,0.0,81,0.00,,,0.00,0,Wunderground v.1.15,2013-02-08 07:32:00,
2013-02-08 01:35:00,-2.1,-6.5,28.99,SSE,160,0.0,0.0,81,0.00,,,0.00,0,Wunderground v.1.15,2013-02-08 07:35:00,
2013-02-08 01:38:00,-2.3,-6.7,28.98,SSE,160,0.0,0.0,81,0.00,,,0.00,0,Wunderground v.1.15,2013-02-08 07:38:00,
2013-02-08 01:41:00,-2.3,-6.7,28.98,SSE,160,0.0,0.0,81,0.00,,,0.00,0,Wunderground v.1.15,2013-02-08 07:41:00,
2013-02-08 01:44:00,-2.3,-6.7,28.98,SSE,160,0.0,0.0,81,0.00,,,0.00,0,Wunderground v.1.15,2013-02-08 07:44:00,
2013-02-08 01:45:00,-2.3,-6.7,28.99,SSE,160,0.0,0.0,81,0.00,,,0.00,0,Wunderground v.1.15,2013-02-08 07:45:00,
2013-02-08 01:47:00,-2.3,-6.7,28.98,SSE,155,0.0,0.0,81,0.00,,,0.00,0,Wunderground v.1.15,2013-02-08 07:47:00,
2013-02-08 01:48:00,-2.3,-6.7,28.99,SSE,155,0.0,0.0,81,0.00,,,0.00,0,Wunderground v.1.15,2013-02-08 07:48:00,
2013-02-08 01:51:00,-2.0,-6.4,28.98,SE,136,1.0,1.0,81,0.00,,,0.00,0,Wunderground v.1.15,2013-02-08 07:51:00,
2013-02-08 01:52:00,-1.9,-6.1,28.99,SE,137,0.0,1.0,82,0.00,,,0.00,0,Wunderground v.1.15,2013-02-08 07:52:00,
2013-02-08 01:54:00,-1.7,-5.9,28.98,SE,137,0.0,1.0,82,0.00,,,0.00,0,Wunderground v.1.15,2013-02-08 07:54:00,
2013-02-08 01:57:00,-1.2,-5.4,28.98,SE,137,0.0,1.0,82,0.00,,,0.00,0,Wunderground v.1.15,2013-02-08 07:57:00,
2013-02-08 01:59:00,-1.0,-5.2,28.98,SE,137,0.0,1.0,82,0.00,,,0.00,0,Wunderground v.1.15,2013-02-08 07:59:00,
2013-02-08 02:00:00,-1.0,-5.2,28.98,SE,137,0.0,0.0,82,0.00,,,0.00,0,Wunderground v.1.15,2013-02-08 08:00:00,
2013-02-08 02:02:00,-0.9,-5.1,28.98,SE,137,0.0,0.0,82,0.00,,,0.00,0,Wunderground v.1.15,2013-02-08 08:02:00,
2013-02-08 02:03:00,-0.8,-5.0,28.98,SE,137,0.0,0.0,82,0.00,,,0.00,0,Wunderground v.1.15,2013-02-08 08:03:00,
2013-02-08 02:04:00,-0.7,-4.9,28.98,SE,137,0.0,0.0,82,0.00,,,0.00,0,Wunderground v.1.15,2013-02-08 08:04:00,
2013-02-08 02:05:00,-0.7,-4.9,28.98,SE,137,0.0,0.0,82,0.00,,,0.00,0,Wunderground v.1.15,2013-02-08 08:05:00,
2013-02-08 02:07:00,-0.5,-4.7,28.98,SE,137,0.0,0.0,82,0.00,,,0.00,0,Wunderground v.1.15,2013-02-08 08:07:00,
2013-02-08 02:08:00,-0.4,-4.3,28.98,SE,137,0.0,0.0,83,0.00,,,0.00,0,Wunderground v.1.15,2013-02-08 08:08:00,
2013-02-08 02:09:00,-0.3,-4.2,28.98,SE,137,0.0,0.0,83,0.00,,,0.00,0,Wunderground v.1.15,2013-02-08 08:09:00,
2013-02-08 02:11:00,-0.3,-4.2,28.98,SE,137,0.0,0.0,83,0.00,,,0.00,0,Wunderground v.1.15,2013-02-08 08:11:00,
2013-02-08 02:13:00,-0.2,-4.1,28.98,SE,137,0.0,0.0,83,0.00,,,0.00,0,Wunderground v.1.15,2013-02-08 08:13:00,
2013-02-08 02:15:00,-0.1,-4.0,28.98,SE,137,0.0,0.0,83,0.00,,,0.00,0,Wunderground v.1.15,2013-02-08 08:15:00,
2013-02-08 02:17:00,-0.2,-4.4,28.98,SE,137,0.0,0.0,82,0.00,,,0.00,0,Wunderground v.1.15,2013-02-08 08:17:00,
2013-02-08 02:18:00,-0.3,-4.5,28.98,SE,137,0.0,0.0,82,0.00,,,0.00,0,Wunderground v.1.15,2013-02-08 08:18:00,
2013-02-08 02:23:00,-0.3,-4.5,28.98,SE,137,0.0,0.0,82,0.00,,,0.00,0,Wunderground v.1.15,2013-02-08 08:23:00,
2013-02-08 02:28:00,-0.2,-4.4,28.97,SE,137,0.0,0.0,82,0.00,,,0.00,0,Wunderground v.1.15,2013-02-08 08:28:00,
2013-02-08 02:29:00,-0.3,-4.5,28.97,SE,137,0.0,0.0,82,0.00,,,0.00,0,Wunderground v.1.15,2013-02-08 08:29:00,
2013-02-08 02:33:00,-0.8,-5.0,28.97,SE,137,0.0,0.0,82,0.00,,,0.00,0,Wunderground v.1.15,2013-02-08 08:33:00,
2013-02-08 02:34:00,-0.8,-5.0,28.97,SE,137,0.0,0.0,82,0.00,,,0.00,0,Wunderground v.1.15,2013-02-08 08:34:00,
2013-02-08 02:35:00,-0.8,-5.0,28.97,SE,137,0.0,0.0,82,0.00,,,0.00,0,Wunderground v.1.15,2013-02-08 08:35:00,
2013-02-08 02:39:00,-1.0,-5.2,28.97,SE,137,0.0,0.0,82,0.00,,,0.00,0,Wunderground v.1.15,2013-02-08 08:39:00,
2013-02-08 02:40:00,-1.0,-5.2,28.97,SE,137,0.0,0.0,82,0.00,,,0.00,0,Wunderground v.1.15,2013-02-08 08:40:00,
2013-02-08 02:44:00,-1.4,-5.8,28.97,SE,137,0.0,0.0,81,0.00,,,0.00,0,Wunderground v.1.15,2013-02-08 08:44:00,
2013-02-08 02:45:00,-1.6,-6.0,28.97,SE,137,0.0,0.0,81,0.00,,,0.00,0,Wunderground v.1.15,2013-02-08 08:45:00,
2013-02-08 02:49:00,-1.9,-6.3,28.97,SE,137,0.0,0.0,81,0.00,,,0.00,0,Wunderground v.1.15,2013-02-08 08:49:00,
2013-02-08 02:50:00,-2.0,-6.4,28.97,SE,137,0.0,0.0,81,0.00,,,0.00,0,Wunderground v.1.15,2013-02-08 08:50:00,
2013-02-08 02:54:00,-2.0,-6.4,28.96,SE,137,0.0,0.0,81,0.00,,,0.00,0,Wunderground v.1.15,2013-02-08 08:54:00,
2013-02-08 02:55:00,-2.1,-6.5,28.97,SE,137,0.0,0.0,81,0.00,,,0.00,0,Wunderground v.1.15,2013-02-08 08:55:00,
2013-02-08 02:56:00,-2.1,-6.5,28.97,SE,137,0.0,0.0,81,0.00,,,0.00,0,Wunderground v.1.15,2013-02-08 08:56:00,
2013-02-08 03:00:00,-2.2,-6.6,28.97,SE,137,0.0,0.0,81,0.00,,,0.00,0,Wunderground v.1.15,2013-02-08 09:00:00,
2013-02-08 03:01:00,-2.3,-6.7,28.97,SE,137,0.0,0.0,81,0.00,,,0.00,0,Wunderground v.1.15,2013-02-08 09:01:00,
2013-02-08 03:05:00,-2.4,-6.5,28.97,SE,137,0.0,0.0,82,0.00,,,0.00,0,Wunderground v.1.15,2013-02-08 09:05:00,
2013-02-08 03:07:00,-2.2,-6.6,28.97,SE,137,0.0,0.0,81,0.00,,,0.00,0,Wunderground v.1.15,2013-02-08 09:07:00,
2013-02-08 03:10:00,-1.6,-5.8,28.97,SE,137,0.0,0.0,82,0.00,,,0.00,0,Wunderground v.1.15,2013-02-08 09:10:00,
2013-02-08 03:11:00,-1.6,-5.8,28.97,SE,137,0.0,0.0,82,0.00,,,0.00,0,Wunderground v.1.15,2013-02-08 09:11:00,
2013-02-08 03:12:00,-1.6,-5.8,28.97,SE,137,0.0,0.0,82,0.00,,,0.00,0,Wunderground v.1.15,2013-02-08 09:12:00,
2013-02-08 03:16:00,-1.6,-5.8,28.97,SE,137,0.0,0.0,82,0.00,,,0.00,0,Wunderground v.1.15,2013-02-08 09:16:00,
2013-02-08 03:17:00,-1.6,-5.8,28.97,SE,137,0.0,0.0,82,0.00,,,0.00,0,Wunderground v.1.15,2013-02-08 09:17:00,
2013-02-08 03:22:00,-2.0,-6.4,28.96,SE,137,0.0,0.0,81,0.00,,,0.00,0,Wunderground v.1.15,2013-02-08 09:22:00,
2013-02-08 03:27:00,-2.5,-6.9,28.96,SE,137,0.0,0.0,81,0.00,,,0.00,0,Wunderground v.1.15,2013-02-08 09:27:00,
2013-02-08 03:28:00,-2.6,-7.0,28.96,SE,137,0.0,0.0,81,0.00,,,0.00,0,Wunderground v.1.15,2013-02-08 09:28:00,
2013-02-08 03:32:00,-2.6,-7.0,28.96,SE,137,0.0,0.0,81,0.00,,,0.00,0,Wunderground v.1.15,2013-02-08 09:32:00,
2013-02-08 03:33:00,-2.5,-6.9,28.96,SE,137,0.0,0.0,81,0.00,,,0.00,0,Wunderground v.1.15,2013-02-08 09:33:00,
2013-02-08 03:37:00,-2.1,-6.2,28.96,SE,137,0.0,0.0,82,0.00,,,0.00,0,Wunderground v.1.15,2013-02-08 09:37:00,
2013-02-08 03:38:00,-2.1,-6.2,28.96,SE,137,0.0,0.0,82,0.00,,,0.00,0,Wunderground v.1.15,2013-02-08 09:38:00,
2013-02-08 03:39:00,-2.1,-6.2,28.96,SE,137,0.0,0.0,82,0.00,,,0.00,0,Wunderground v.1.15,2013-02-08 09:39:00,
2013-02-08 03:42:00,-1.7,-5.6,28.96,SE,137,0.0,0.0,83,0.00,,,0.00,0,Wunderground v.1.15,2013-02-08 09:42:00,
2013-02-08 03:44:00,-1.4,-5.3,28.96,SE,137,0.0,0.0,83,0.00,,,0.00,0,Wunderground v.1.15,2013-02-08 09:44:00,
2013-02-08 03:47:00,-0.9,-4.8,28.96,SE,137,0.0,0.0,83,0.00,,,0.00,0,Wunderground v.1.15,2013-02-08 09:47:00,
2013-02-08 03:49:00,-0.6,-4.5,28.96,SE,137,0.0,0.0,83,0.00,,,0.00,0,Wunderground v.1.15,2013-02-08 09:49:00,
2013-02-08 03:53:00,0.1,-3.6,28.96,SE,138,0.0,0.0,84,0.00,,,0.00,0,Wunderground v.1.15,2013-02-08 09:53:00,
2013-02-08 03:54:00,0.2,-3.5,28.95,SE,138,0.0,0.0,84,0.00,,,0.00,0,Wunderground v.1.15,2013-02-08 09:54:00,
2013-02-08 03:58:00,0.6,-3.1,28.96,SE,138,0.0,0.0,84,0.00,,,0.00,0,Wunderground v.1.15,2013-02-08 09:58:00,
2013-02-08 04:01:00,0.9,-2.8,28.95,SE,138,0.0,0.0,84,0.00,,,0.00,0,Wunderground v.1.15,2013-02-08 10:01:00,
2013-02-08 04:02:00,0.9,-2.8,28.96,SE,138,0.0,0.0,84,0.00,,,0.00,0,Wunderground v.1.15,2013-02-08 10:02:00,
2013-02-08 04:04:00,1.0,-2.7,28.95,SE,138,0.0,0.0,84,0.00,,,0.00,0,Wunderground v.1.15,2013-02-08 10:04:00,
2013-02-08 04:07:00,1.3,-2.4,28.95,SE,138,0.0,0.0,84,0.00,,,0.00,0,Wunderground v.1.15,2013-02-08 10:07:00,
2013-02-08 04:09:00,1.4,-2.3,28.95,SE,138,0.0,0.0,84,0.00,,,0.00,0,Wunderground v.1.15,2013-02-08 10:09:00,
2013-02-08 04:12:00,1.5,-2.2,28.95,SE,138,0.0,0.0,84,0.00,,,0.00,0,Wunderground v.1.15,2013-02-08 10:12:00,
2013-02-08 04:13:00,1.6,-2.1,28.95,SE,138,0.0,0.0,84,0.00,,,0.00,0,Wunderground v.1.15,2013-02-08 10:13:00,
2013-02-08 04:14:00,1.6,-2.1,28.95,SE,138,0.0,0.0,84,0.00,,,0.00,0,Wunderground v.1.15,2013-02-08 10:14:00,
2013-02-08 04:17:00,1.7,-2.0,28.95,SE,138,0.0,0.0,84,0.00,,,0.00,0,Wunderground v.1.15,2013-02-08 10:17:00,
2013-02-08 04:18:00,1.8,-1.7,28.95,SE,138,0.0,0.0,85,0.00,,,0.00,0,Wunderground v.1.15,2013-02-08 10:18:00,
2013-02-08 04:19:00,1.8,-1.7,28.95,SE,138,0.0,0.0,85,0.00,,,0.00,0,Wunderground v.1.15,2013-02-08 10:19:00,
2013-02-08 04:23:00,2.0,-1.5,28.95,SE,138,0.0,0.0,85,0.00,,,0.00,0,Wunderground v.1.15,2013-02-08 10:23:00,
2013-02-08 04:26:00,2.2,-1.3,28.95,SE,138,0.0,0.0,85,0.00,,,0.00,0,Wunderground v.1.15,2013-02-08 10:26:00,
2013-02-08 04:28:00,2.2,-1.3,28.95,SE,138,0.0,0.0,85,0.00,,,0.00,0,Wunderground v.1.15,2013-02-08 10:28:00,
2013-02-08 04:29:00,2.1,-1.4,28.95,SE,138,0.0,0.0,85,0.00,,,0.00,0,Wunderground v.1.15,2013-02-08 10:29:00,
2013-02-08 04:32:00,1.9,-1.8,28.95,South,180,0.0,0.0,84,0.00,,,0.00,0,Wunderground v.1.15,2013-02-08 10:32:00,
2013-02-08 04:34:00,1.8,-1.9,28.95,South,180,0.0,0.0,84,0.00,,,0.00,0,Wunderground v.1.15,2013-02-08 10:34:00,
2013-02-08 04:39:00,1.5,-2.2,28.95,South,180,0.0,0.0,84,0.00,,,0.00,0,Wunderground v.1.15,2013-02-08 10:39:00,
2013-02-08 04:41:00,1.4,-2.3,28.95,South,180,0.0,0.0,84,0.00,,,0.00,0,Wunderground v.1.15,2013-02-08 10:41:00,
2013-02-08 04:45:00,0.9,-2.8,28.95,South,180,0.0,0.0,84,0.00,,,0.00,0,Wunderground v.1.15,2013-02-08 10:45:00,
2013-02-08 04:47:00,0.8,-2.9,28.95,South,180,0.0,0.0,84,0.00,,,0.00,0,Wunderground v.1.15,2013-02-08 10:47:00,
2013-02-08 04:50:00,0.7,-3.0,28.95,South,180,0.0,0.0,84,0.00,,,0.00,0,Wunderground v.1.15,2013-02-08 10:50:00,
2013-02-08 04:52:00,0.8,-2.9,28.95,South,180,0.0,0.0,84,0.00,,,0.00,0,Wunderground v.1.15,2013-02-08 10:52:00,
2013-02-08 04:55:00,0.8,-2.9,28.95,South,180,0.0,0.0,84,0.00,,,0.00,0,Wunderground v.1.15,2013-02-08 10:55:00,
2013-02-08 04:57:00,0.7,-3.0,28.95,South,180,0.0,0.0,84,0.00,,,0.00,0,Wunderground v.1.15,2013-02-08 10:57:00,
2013-02-08 05:00:00,0.6,-3.1,28.95,South,180,0.0,0.0,84,0.00,,,0.00,0,Wunderground v.1.15,2013-02-08 11:00:00,
2013-02-08 05:01:00,0.6,-3.1,28.95,South,180,0.0,0.0,84,0.00,,,0.00,0,Wunderground v.1.15,2013-02-08 11:01:00,
2013-02-08 05:02:00,0.5,-3.2,28.95,South,180,0.0,0.0,84,0.00,,,0.00,0,Wunderground v.1.15,2013-02-08 11:02:00,
2013-02-08 05:05:00,0.3,-3.4,28.95,South,180,0.0,0.0,84,0.00,,,0.00,0,Wunderground v.1.15,2013-02-08 11:05:00,
2013-02-08 05:06:00,0.3,-3.4,28.95,South,180,0.0,0.0,84,0.00,,,0.00,0,Wunderground v.1.15,2013-02-08 11:06:00,
2013-02-08 05:08:00,0.2,-3.5,28.95,South,180,0.0,0.0,84,0.00,,,0.00,0,Wunderground v.1.15,2013-02-08 11:08:00,
2013-02-08 05:10:00,0.2,-3.5,28.95,South,180,0.0,0.0,84,0.00,,,0.00,0,Wunderground v.1.15,2013-02-08 11:10:00,
2013-02-08 05:11:00,0.3,-3.4,28.95,South,180,0.0,0.0,84,0.00,,,0.00,0,Wunderground v.1.15,2013-02-08 11:11:00,
2013-02-08 05:13:00,0.4,-3.3,28.95,South,180,0.0,0.0,84,0.00,,,0.00,0,Wunderground v.1.15,2013-02-08 11:13:00,
2013-02-08 05:15:00,0.5,-3.2,28.95,South,180,0.0,0.0,84,0.00,,,0.00,0,Wunderground v.1.15,2013-02-08 11:15:00,
2013-02-08 05:16:00,0.5,-2.9,28.95,South,180,0.0,0.0,85,0.00,,,0.00,0,Wunderground v.1.15,2013-02-08 11:16:00,
2013-02-08 05:17:00,0.5,-2.9,28.95,South,180,0.0,0.0,85,0.00,,,0.00,0,Wunderground v.1.15,2013-02-08 11:17:00,
2013-02-08 05:19:00,0.7,-2.7,28.95,South,177,0.0,0.0,85,0.00,,,0.00,0,Wunderground v.1.15,2013-02-08 11:19:00,
2013-02-08 05:21:00,0.8,-2.7,28.95,South,177,0.0,0.0,85,0.00,,,0.00,0,Wunderground v.1.15,2013-02-08 11:21:00,
2013-02-08 05:22:00,0.9,-2.6,28.94,South,177,0.0,0.0,85,0.00,,,0.00,0,Wunderground v.1.15,2013-02-08 11:22:00,
2013-02-08 05:24:00,1.0,-2.5,28.94,South,177,0.0,0.0,85,0.00,,,0.00,0,Wunderground v.1.15,2013-02-08 11:24:00,
2013-02-08 05:26:00,0.9,-2.6,28.94,South,177,0.0,0.0,85,0.00,,,0.00,0,Wunderground v.1.15,2013-02-08 11:26:00,
2013-02-08 05:27:00,0.9,-2.6,28.94,South,177,0.0,0.0,85,0.00,,,0.00,0,Wunderground v.1.15,2013-02-08 11:27:00,
2013-02-08 05:30:00,0.6,-3.1,28.94,South,177,0.0,0.0,84,0.00,,,0.00,0,Wunderground v.1.15,2013-02-08 11:30:00,
2013-02-08 05:31:00,0.5,-3.2,28.94,South,177,0.0,0.0,84,0.00,,,0.00,0,Wunderground v.1.15,2013-02-08 11:31:00,
2013-02-08 05:32:00,0.4,-3.3,28.94,South,177,0.0,0.0,84,0.00,,,0.00,0,Wunderground v.1.15,2013-02-08 11:32:00,
2013-02-08 05:33:00,0.2,-3.5,28.94,South,177,0.0,0.0,84,0.00,,,0.00,0,Wunderground v.1.15,2013-02-08 11:33:00,
2013-02-08 05:36:00,-0.1,-3.8,28.94,South,177,0.0,0.0,84,0.00,,,0.00,0,Wunderground v.1.15,2013-02-08 11:36:00,
2013-02-08 05:37:00,-0.2,-3.9,28.94,South,177,0.0,0.0,84,0.00,,,0.00,0,Wunderground v.1.15,2013-02-08 11:37:00,
2013-02-08 05:38:00,-0.3,-4.2,28.94,South,177,0.0,0.0,83,0.00,,,0.00,0,Wunderground v.1.15,2013-02-08 11:38:00,
2013-02-08 05:41:00,-0.5,-4.4,28.94,South,177,0.0,0.0,83,0.00,,,0.00,0,Wunderground v.1.15,2013-02-08 11:41:00,
2013-02-08 05:43:00,-0.7,-4.6,28.94,South,177,0.0,0.0,83,0.00,,,0.00,0,Wunderground v.1.15,2013-02-08 11:43:00,
2013-02-08 05:44:00,-0.8,-4.7,28.94,South,177,0.0,0.0,83,0.00,,,0.00,0,Wunderground v.1.15,2013-02-08 11:44:00,
2013-02-08 05:46:00,-0.8,-4.7,28.93,South,177,0.0,0.0,83,0.00,,,0.00,0,Wunderground v.1.15,2013-02-08 11:46:00,
2013-02-08 05:47:00,-0.9,-4.8,28.94,South,177,0.0,0.0,83,0.00,,,0.00,0,Wunderground v.1.15,2013-02-08 11:47:00,
2013-02-08 05:48:00,-0.9,-4.8,28.94,South,177,0.0,0.0,83,0.00,,,0.00,0,Wunderground v.1.15,2013-02-08 11:48:00,
2013-02-08 05:49:00,-0.9,-4.6,28.93,South,177,0.0,0.0,84,0.00,,,0.00,0,Wunderground v.1.15,2013-02-08 11:49:00,
2013-02-08 05:51:00,-0.8,-4.5,28.93,South,177,0.0,0.0,84,0.00,,,0.00,0,Wunderground v.1.15,2013-02-08 11:51:00,
2013-02-08 05:52:00,-0.8,-4.5,28.93,South,177,0.0,0.0,84,0.00,,,0.00,0,Wunderground v.1.15,2013-02-08 11:52:00,
2013-02-08 05:54:00,-0.7,-4.4,28.93,South,177,0.0,0.0,84,0.00,,,0.00,0,Wunderground v.1.15,2013-02-08 11:54:00,
2013-02-08 05:56:00,-0.6,-4.3,28.93,South,177,0.0,0.0,84,0.00,,,0.00,0,Wunderground v.1.15,2013-02-08 11:56:00,
2013-02-08 05:58:00,-0.5,-4.2,28.93,South,177,0.0,0.0,84,0.00,,,0.00,0,Wunderground v.1.15,2013-02-08 11:58:00,
2013-02-08 06:00:00,-0.5,-4.2,28.93,South,177,0.0,0.0,84,0.00,,,0.00,0,Wunderground v.1.15,2013-02-08 12:00:00,
2013-02-08 06:01:00,-0.3,-4.0,28.93,South,177,0.0,0.0,84,0.00,,,0.00,0,Wunderground v.1.15,2013-02-08 12:01:00,
2013-02-08 06:02:00,-0.3,-4.0,28.93,South,177,0.0,0.0,84,0.00,,,0.00,0,Wunderground v.1.15,2013-02-08 12:02:00,
2013-02-08 06:03:00,-0.3,-4.0,28.93,South,177,0.0,0.0,84,0.00,,,0.00,0,Wunderground v.1.15,2013-02-08 12:03:00,
2013-02-08 06:05:00,-0.2,-3.6,28.93,South,177,0.0,0.0,85,0.00,,,0.00,0,Wunderground v.1.15,2013-02-08 12:05:00,
2013-02-08 06:07:00,-0.2,-3.9,28.93,South,177,0.0,0.0,84,0.00,,,0.00,0,Wunderground v.1.15,2013-02-08 12:07:00,
2013-02-08 06:08:00,-0.2,-3.9,28.93,South,177,0.0,0.0,84,0.00,,,0.00,0,Wunderground v.1.15,2013-02-08 12:08:00,
2013-02-08 06:10:00,-0.1,-3.5,28.93,South,177,0.0,0.0,85,0.00,,,0.00,0,Wunderground v.1.15,2013-02-08 12:10:00,
2013-02-08 06:12:00,0.0,-3.7,28.93,South,177,0.0,0.0,84,0.00,,,0.00,0,Wunderground v.1.15,2013-02-08 12:12:00,
2013-02-08 06:13:00,0.1,-3.3,28.93,South,177,0.0,0.0,85,0.00,,,0.00,0,Wunderground v.1.15,2013-02-08 12:13:00,
2013-02-08 06:17:00,0.4,-3.0,28.93,South,177,0.0,0.0,85,0.00,,,0.00,0,Wunderground v.1.15,2013-02-08 12:17:00,
2013-02-08 06:19:00,0.5,-2.9,28.93,South,177,0.0,0.0,85,0.00,,,0.00,0,Wunderground v.1.15,2013-02-08 12:19:00,
2013-02-08 06:23:00,0.8,-2.7,28.93,South,177,0.0,0.0,85,0.00,,,0.00,0,Wunderground v.1.15,2013-02-08 12:23:00,
2013-02-08 06:25:00,1.0,-2.5,28.93,South,177,0.0,0.0,85,0.00,,,0.00,0,Wunderground v.1.15,2013-02-08 12:25:00,
2013-02-08 06:28:00,1.6,-1.6,28.93,South,174,4.0,4.0,86,0.00,,,0.00,0,Wunderground v.1.15,2013-02-08 12:28:00,
2013-02-08 06:30:00,2.1,-1.1,28.93,SE,132,0.0,4.0,86,0.00,,,0.00,0,Wunderground v.1.15,2013-02-08 12:30:00,
2013-02-08 06:31:00,2.5,-0.5,28.93,SE,132,0.0,0.0,87,0.00,,,0.00,0,Wunderground v.1.15,2013-02-08 12:31:00,
2013-02-08 06:33:00,2.8,-0.2,28.92,SE,127,0.0,2.0,87,0.00,,,0.00,0,Wunderground v.1.15,2013-02-08 12:33:00,
2013-02-08 06:36:00,3.6,0.6,28.92,SE,146,1.0,5.0,87,0.00,,,0.00,0,Wunderground v.1.15,2013-02-08 12:36:00,
2013-02-08 06:37:00,3.8,1.0,28.92,SSE,157,1.0,6.0,88,0.00,,,0.00,0,Wunderground v.1.15,2013-02-08 12:37:00,
2013-02-08 06:38:00,4.3,1.5,28.92,SSE,149,1.0,6.0,88,0.00,,,0.00,0,Wunderground v.1.15,2013-02-08 12:38:00,
2013-02-08 06:39:00,4.4,1.6,28.92,SSE,152,0.0,6.0,88,0.00,,,0.00,0,Wunderground v.1.15,2013-02-08 12:39:00,
2013-02-08 06:41:00,4.8,2.0,28.92,SSE,155,0.0,1.0,88,0.00,,,0.00,0,Wunderground v.1.15,2013-02-08 12:41:00,
2013-02-08 06:42:00,4.8,2.0,28.92,SSE,155,0.0,1.0,88,0.00,,,0.00,0,Wunderground v.1.15,2013-02-08 12:42:00,
2013-02-08 06:43:00,4.9,2.1,28.92,SSE,155,0.0,1.0,88,0.00,,,0.00,0,Wunderground v.1.15,2013-02-08 12:43:00,
2013-02-08 06:44:00,5.0,2.2,28.92,SSE,155,0.0,1.0,88,0.00,,,0.00,0,Wunderground v.1.15,2013-02-08 12:44:00,
2013-02-08 06:47:00,5.4,2.6,28.92,SSE,155,0.0,1.0,88,0.00,,,0.00,0,Wunderground v.1.15,2013-02-08 12:47:00,
2013-02-08 06:49:00,5.5,2.7,28.92,SSE,156,0.0,1.0,88,0.00,,,0.00,0,Wunderground v.1.15,2013-02-08 12:49:00,
2013-02-08 06:51:00,5.6,2.8,28.92,SSE,156,0.0,0.0,88,0.00,,,0.00,0,Wunderground v.1.15,2013-02-08 12:51:00,
2013-02-08 06:52:00,5.6,2.8,28.92,SSE,165,1.0,2.0,88,0.00,,,0.00,0,Wunderground v.1.15,2013-02-08 12:52:00,
2013-02-08 06:54:00,5.8,3.0,28.92,SSE,164,0.0,4.0,88,0.00,,,0.00,0,Wunderground v.1.15,2013-02-08 12:54:00,
2013-02-08 06:56:00,6.0,3.2,28.92,SSE,166,1.0,4.0,88,0.00,,,0.00,0,Wunderground v.1.15,2013-02-08 12:56:00,
2013-02-08 06:57:00,6.0,3.2,28.92,SSE,152,2.0,4.0,88,0.00,,,0.00,0,Wunderground v.1.15,2013-02-08 12:57:00,
2013-02-08 06:59:00,6.2,3.4,28.92,South,185,1.0,5.0,88,0.00,,,0.00,0,Wunderground v.1.15,2013-02-08 12:59:00,
2013-02-08 07:01:00,6.3,3.5,28.92,South,182,0.0,2.0,88,0.00,,,0.00,0,Wunderground v.1.15,2013-02-08 13:01:00,
2013-02-08 07:02:00,6.3,3.5,28.92,SSE,166,2.0,4.0,88,0.00,,,0.00,0,Wunderground v.1.15,2013-02-08 13:02:00,
2013-02-08 07:03:00,6.3,3.5,28.92,South,183,1.0,4.0,88,0.00,,,0.00,0,Wunderground v.1.15,2013-02-08 13:03:00,
2013-02-08 07:04:00,6.4,3.6,28.92,South,170,0.0,4.0,88,0.00,,,0.00,0,Wunderground v.1.15,2013-02-08 13:04:00,
2013-02-08 07:07:00,6.5,3.7,28.92,SE,144,0.0,4.0,88,0.00,,,0.00,0,Wunderground v.1.15,2013-02-08 13:07:00,
2013-02-08 07:08:00,6.5,3.7,28.92,SE,138,0.0,4.0,88,0.00,,,0.00,0,Wunderground v.1.15,2013-02-08 13:08:00,
2013-02-08 07:10:00,6.5,3.7,28.92,SE,138,0.0,0.0,88,0.00,,,0.00,0,Wunderground v.1.15,2013-02-08 13:10:00,
2013-02-08 07:12:00,6.4,3.6,28.92,SE,138,0.0,0.0,88,0.00,,,0.00,0,Wunderground v.1.15,2013-02-08 13:12:00,
2013-02-08 07:13:00,6.4,3.6,28.92,SE,138,0.0,0.0,88,0.00,,,0.00,0,Wunderground v.1.15,2013-02-08 13:13:00,
2013-02-08 07:17:00,6.1,3.3,28.92,SE,138,0.0,0.0,88,0.00,,,0.00,0,Wunderground v.1.15,2013-02-08 13:17:00,
2013-02-08 07:18:00,6.0,3.2,28.92,SE,138,0.0,0.0,88,0.00,,,0.00,0,Wunderground v.1.15,2013-02-08 13:18:00,
2013-02-08 07:20:00,5.8,3.0,28.92,SE,138,0.0,0.0,88,0.00,,,0.00,0,Wunderground v.1.15,2013-02-08 13:20:00,
2013-02-08 07:22:00,5.8,3.0,28.92,SE,138,0.0,0.0,88,0.00,,,0.00,0,Wunderground v.1.15,2013-02-08 13:22:00,
2013-02-08 07:23:00,5.7,2.9,28.92,SE,138,0.0,0.0,88,0.00,,,0.00,0,Wunderground v.1.15,2013-02-08 13:23:00,
2013-02-08 07:24:00,5.7,2.9,28.92,SE,138,0.0,0.0,88,0.00,,,0.00,0,Wunderground v.1.15,2013-02-08 13:24:00,
2013-02-08 07:26:00,5.6,2.8,28.92,SE,138,0.0,0.0,88,0.00,,,0.00,0,Wunderground v.1.15,2013-02-08 13:26:00,
2013-02-08 07:27:00,5.5,2.7,28.92,SE,138,0.0,0.0,88,0.00,,,0.00,0,Wunderground v.1.15,2013-02-08 13:27:00,
2013-02-08 07:29:00,5.5,2.7,28.92,SE,138,0.0,0.0,88,0.00,,,0.00,0,Wunderground v.1.15,2013-02-08 13:29:00,
2013-02-08 07:30:00,5.5,2.7,28.92,SE,138,0.0,0.0,88,0.00,,,0.00,0,Wunderground v.1.15,2013-02-08 13:30:00,
2013-02-08 07:32:00,5.4,2.6,28.92,SE,138,0.0,0.0,88,0.00,,,0.00,0,Wunderground v.1.15,2013-02-08 13:32:00,
2013-02-08 07:35:00,5.3,2.5,28.92,SE,137,0.0,0.0,88,0.00,,,0.00,0,Wunderground v.1.15,2013-02-08 13:35:00,
2013-02-08 07:38:00,5.2,2.4,28.92,SE,138,0.0,0.0,88,0.00,,,0.00,0,Wunderground v.1.15,2013-02-08 13:38:00,
2013-02-08 07:40:00,5.2,2.4,28.92,SE,138,0.0,0.0,88,0.00,,,0.00,0,Wunderground v.1.15,2013-02-08 13:40:00,
2013-02-08 07:41:00,5.2,2.4,28.92,SE,138,0.0,0.0,88,0.00,,,0.00,0,Wunderground v.1.15,2013-02-08 13:41:00,
2013-02-08 07:44:00,5.3,2.5,28.92,SE,137,0.0,0.0,88,0.00,,,0.00,0,Wunderground v.1.15,2013-02-08 13:44:00,
2013-02-08 07:45:00,5.3,2.5,28.92,SE,137,0.0,0.0,88,0.00,,,0.00,0,Wunderground v.1.15,2013-02-08 13:45:00,
2013-02-08 07:47:00,5.3,2.5,28.92,SE,138,0.0,0.0,88,0.00,,,0.00,0,Wunderground v.1.15,2013-02-08 13:47:00,
2013-02-08 07:49:00,5.3,2.5,28.92,SE,138,0.0,0.0,88,0.00,,,0.00,0,Wunderground v.1.15,2013-02-08 13:49:00,
2013-02-08 07:50:00,5.4,2.6,28.92,SE,138,0.0,0.0,88,0.00,,,0.00,0,Wunderground v.1.15,2013-02-08 13:50:00,
2013-02-08 07:52:00,5.4,2.6,28.92,SE,138,0.0,0.0,88,0.00,,,0.00,0,Wunderground v.1.15,2013-02-08 13:52:00,
2013-02-08 07:55:00,5.5,2.7,28.92,SE,138,0.0,0.0,88,0.00,,,0.00,0,Wunderground v.1.15,2013-02-08 13:55:00,
2013-02-08 07:57:00,5.6,2.8,28.92,SE,138,0.0,0.0,88,0.00,,,0.00,0,Wunderground v.1.15,2013-02-08 13:57:00,
2013-02-08 08:00:00,5.7,2.9,28.92,SE,136,0.0,0.0,88,0.00,,,0.00,0,Wunderground v.1.15,2013-02-08 14:00:00,
2013-02-08 08:01:00,5.7,2.9,28.92,SE,136,0.0,0.0,88,0.00,,,0.00,0,Wunderground v.1.15,2013-02-08 14:01:00,
2013-02-08 08:02:00,5.8,3.0,28.92,SE,136,0.0,0.0,88,0.00,,,0.00,0,Wunderground v.1.15,2013-02-08 14:02:00,
2013-02-08 08:05:00,6.0,3.5,28.92,SE,136,0.0,0.0,89,0.00,,,0.00,0,Wunderground v.1.15,2013-02-08 14:05:00,
2013-02-08 08:07:00,6.3,3.8,28.92,SE,137,0.0,1.0,89,0.00,,,0.00,0,Wunderground v.1.15,2013-02-08 14:07:00,
2013-02-08 08:08:00,6.4,3.9,28.92,SE,136,0.0,1.0,89,0.00,,,0.00,0,Wunderground v.1.15,2013-02-08 14:08:00,
2013-02-08 08:11:00,6.9,4.3,28.92,SSE,162,0.0,2.0,89,0.00,,,0.00,0,Wunderground v.1.15,2013-02-08 14:11:00,
2013-02-08 08:12:00,7.1,4.5,28.92,SSE,165,1.0,3.0,89,0.00,,,0.00,0,Wunderground v.1.15,2013-02-08 14:12:00,
2013-02-08 08:13:00,7.2,4.6,28.92,SSE,166,0.0,3.0,89,0.00,,,0.00,0,Wunderground v.1.15,2013-02-08 14:13:00,
2013-02-08 08:17:00,7.9,5.6,28.92,SE,146,1.0,4.0,90,0.00,,,0.00,0,Wunderground v.1.15,2013-02-08 14:17:00,
2013-02-08 08:18:00,8.0,5.7,28.92,SE,146,2.0,4.0,90,0.00,,,0.00,0,Wunderground v.1.15,2013-02-08 14:18:00,
2013-02-08 08:19:00,8.2,5.9,28.92,South,170,1.0,4.0,90,0.00,,,0.00,0,Wunderground v.1.15,2013-02-08 14:19:00,
2013-02-08 08:23:00,8.6,6.3,28.92,South,180,1.0,3.0,90,0.00,,,0.00,0,Wunderground v.1.15,2013-02-08 14:23:00,
2013-02-08 08:24:00,8.9,6.6,28.92,SSE,162,0.0,3.0,90,0.00,,,0.00,0,Wunderground v.1.15,2013-02-08 14:24:00,
2013-02-08 08:28:00,9.2,6.9,28.92,South,174,4.0,4.0,90,0.00,,,0.00,0,Wunderground v.1.15,2013-02-08 14:28:00,
2013-02-08 08:30:00,9.4,7.1,28.92,South,191,0.0,4.0,90,0.00,,,0.00,0,Wunderground v.1.15,2013-02-08 14:30:00,
2013-02-08 08:33:00,9.7,7.4,28.92,SSE,161,2.0,7.0,90,0.00,,,0.00,0,Wunderground v.1.15,2013-02-08 14:33:00,
2013-02-08 08:35:00,10.0,7.9,28.93,South,172,4.0,7.0,91,0.00,,,0.00,0,Wunderground v.1.15,2013-02-08 14:35:00,
2013-02-08 08:38:00,10.4,8.3,28.92,SSE,154,9.0,9.0,91,0.00,,,0.00,0,Wunderground v.1.15,2013-02-08 14:38:00,
2013-02-08 08:39:00,10.5,8.4,28.92,SSE,155,4.0,9.0,91,0.00,,,0.00,0,Wunderground v.1.15,2013-02-08 14:39:00,
2013-02-08 08:40:00,10.6,8.5,28.92,South,172,3.0,9.0,91,0.00,,,0.00,0,Wunderground v.1.15,2013-02-08 14:40:00,
2013-02-08 08:44:00,11.0,8.9,28.92,SSE,159,2.0,9.0,91,0.00,,,0.00,0,Wunderground v.1.15,2013-02-08 14:44:00,
2013-02-08 08:46:00,11.2,9.3,28.92,SSE,167,2.0,10.0,92,0.00,,,0.00,0,Wunderground v.1.15,2013-02-08 14:46:00,
2013-02-08 08:49:00,11.5,9.6,28.92,South,180,4.0,10.0,92,0.00,,,0.00,0,Wunderground v.1.15,2013-02-08 14:49:00,
2013-02-08 08:52:00,11.7,9.8,28.92,SSE,152,3.0,6.0,92,0.00,,,0.00,0,Wunderground v.1.15,2013-02-08 14:52:00,
2013-02-08 08:55:00,11.9,10.0,28.92,SSE,161,8.0,8.0,92,0.00,,,0.00,0,Wunderground v.1.15,2013-02-08 14:55:00,
2013-02-08 08:57:00,12.0,10.1,28.93,SSE,153,5.0,8.0,92,0.00,,,0.00,0,Wunderground v.1.15,2013-02-08 14:57:00,
2013-02-08 09:00:00,12.3,10.4,28.92,SW,225,1.0,2.0,92,0.00,,,0.00,0,Wunderground v.1.15,2013-02-08 15:00:00,
2013-02-08 09:01:00,12.3,10.4,28.92,SW,226,1.0,2.0,92,0.00,,,0.00,0,Wunderground v.1.15,2013-02-08 15:01:00,
2013-02-08 09:02:00,12.4,10.5,28.93,SSW,193,8.0,9.0,92,0.00,,,0.00,0,Wunderground v.1.15,2013-02-08 15:02:00,
2013-02-08 09:03:00,12.4,10.5,28.93,SSE,151,3.0,9.0,92,0.00,,,0.00,0,Wunderground v.1.15,2013-02-08 15:03:00,
2013-02-08 09:08:00,12.6,10.7,28.93,South,190,3.0,9.0,92,0.00,,,0.00,0,Wunderground v.1.15,2013-02-08 15:08:00,
2013-02-08 09:09:00,12.6,10.7,28.93,SSW,202,4.0,9.0,92,0.00,,,0.00,0,Wunderground v.1.15,2013-02-08 15:09:00,
2013-02-08 09:13:00,12.7,10.8,28.92,SSW,192,1.0,10.0,92,0.00,,,0.00,0,Wunderground v.1.15,2013-02-08 15:13:00,
2013-02-08 09:14:00,12.8,10.9,28.93,South,172,2.0,10.0,92,0.00,,,0.00,0,Wunderground v.1.15,2013-02-08 15:14:00,
2013-02-08 09:18:00,12.9,11.0,28.92,SSE,163,9.0,11.0,92,0.00,,,0.00,0,Wunderground v.1.15,2013-02-08 15:18:00,
2013-02-08 09:19:00,12.9,11.0,28.92,SSE,163,2.0,11.0,92,0.00,,,0.00,0,Wunderground v.1.15,2013-02-08 15:19:00,
2013-02-08 09:23:00,13.0,11.1,28.92,South,178,4.0,8.0,92,0.00,,,0.00,0,Wunderground v.1.15,2013-02-08 15:23:00,
2013-02-08 09:24:00,13.0,11.1,28.93,SSE,165,6.0,9.0,92,0.00,,,0.00,0,Wunderground v.1.15,2013-02-08 15:24:00,
2013-02-08 09:28:00,13.1,11.2,28.93,SSE,167,1.0,10.0,92,0.00,,,0.00,0,Wunderground v.1.15,2013-02-08 15:28:00,
2013-02-08 09:29:00,13.1,11.2,28.93,SW,219,3.0,10.0,92,0.00,,,0.00,0,Wunderground v.1.15,2013-02-08 15:29:00,
2013-02-08 09:30:00,13.1,11.2,28.93,SSW,204,1.0,10.0,92,0.00,,,0.00,0,Wunderground v.1.15,2013-02-08 15:30:00,
2013-02-08 09:34:00,13.1,11.2,28.93,SSE,165,7.0,9.0,92,0.00,,,0.00,0,Wunderground v.1.15,2013-02-08 15:34:00,
2013-02-08 09:36:00,13.1,11.2,28.93,SSE,154,13.0,13.0,92,0.00,,,0.00,0,Wunderground v.1.15,2013-02-08 15:36:00,
2013-02-08 09:39:00,13.1,11.2,28.93,SSE,155,4.0,15.0,92,0.00,,,0.00,0,Wunderground v.1.15,2013-02-08 15:39:00,
2013-02-08 09:40:00,13.1,11.2,28.93,SSE,154,0.0,15.0,92,0.00,,,0.00,0,Wunderground v.1.15,2013-02-08 15:40:00,
2013-02-08 09:44:00,13.1,11.2,28.92,South,177,2.0,5.0,92,0.00,,,0.00,0,Wunderground v.1.15,2013-02-08 15:44:00,
2013-02-08 09:48:00,13.1,11.5,28.92,South,174,2.0,7.0,93,0.00,,,0.00,0,Wunderground v.1.15,2013-02-08 15:48:00,
2013-02-08 09:49:00,13.1,11.2,28.92,SSW,204,6.0,8.0,92,0.00,,,0.00,0,Wunderground v.1.15,2013-02-08 15:49:00,
2013-02-08 09:53:00,13.2,11.3,28.92,South,190,1.0,8.0,92,0.00,,,0.00,0,Wunderground v.1.15,2013-02-08 15:53:00,
2013-02-08 09:55:00,13.2,11.6,28.93,South,183,7.0,8.0,93,0.00,,,0.00,0,Wunderground v.1.15,2013-02-08 15:55:00,
2013-02-08 09:58:00,13.3,11.7,28.92,SSE,154,1.0,8.0,93,0.00,,,0.00,0,Wunderground v.1.15,2013-02-08 15:58:00,
2013-02-08 10:00:00,13.4,11.8,28.92,SSW,195,0.0,0.0,93,0.00,,,0.00,0,Wunderground v.1.15,2013-02-08 16:00:00,
2013-02-08 10:01:00,13.4,11.8,28.92,SSW,192,0.0,0.0,93,0.00,,,0.00,0,Wunderground v.1.15,2013-02-08 16:01:00,
2013-02-08 10:03:00,13.5,11.9,28.92,South,173,6.0,7.0,93,0.00,,,0.00,0,Wunderground v.1.15,2013-02-08 16:03:00,
2013-02-08 10:04:00,13.5,11.9,28.92,South,176,7.0,8.0,93,0.00,,,0.00,0,Wunderground v.1.15,2013-02-08 16:04:00,
2013-02-08 10:06:00,13.6,12.0,28.92,South,174,2.0,12.0,93,0.00,,,0.00,0,Wunderground v.1.15,2013-02-08 16:06:00,
2013-02-08 10:08:00,13.6,12.0,28.92,South,176,2.0,12.0,93,0.00,,,0.00,0,Wunderground v.1.15,2013-02-08 16:08:00,
2013-02-08 10:10:00,13.7,11.8,28.92,South,188,3.0,12.0,92,0.00,,,0.00,0,Wunderground v.1.15,2013-02-08 16:10:00,
2013-02-08 10:11:00,13.8,12.2,28.92,SSE,160,1.0,2.0,93,0.00,,,0.00,0,Wunderground v.1.15,2013-02-08 16:11:00,
2013-02-08 10:13:00,13.8,12.2,28.92,SSW,203,2.0,6.0,93,0.00,,,0.00,0,Wunderground v.1.15,2013-02-08 16:13:00,
2013-02-08 10:15:00,13.8,12.2,28.92,South,174,2.0,8.0,93,0.00,,,0.00,0,Wunderground v.1.15,2013-02-08 16:15:00,
2013-02-08 10:17:00,13.9,12.3,28.92,SSW,197,1.0,8.0,93,0.00,,,0.00,0,Wunderground v.1.15,2013-02-08 16:17:00,
2013-02-08 10:18:00,13.9,12.3,28.92,SSW,212,2.0,8.0,93,0.00,,,0.00,0,Wunderground v.1.15,2013-02-08 16:18:00,
2013-02-08 10:19:00,13.9,12.3,28.92,South,189,2.0,8.0,93,0.00,,,0.00,0,Wunderground v.1.15,2013-02-08 16:19:00,
2013-02-08 10:21:00,13.9,12.0,28.92,South,174,9.0,10.0,92,0.00,,,0.00,0,Wunderground v.1.15,2013-02-08 16:21:00,
2013-02-08 10:22:00,14.0,12.3,28.92,South,184,8.0,13.0,93,0.00,,,0.00,0,Wunderground v.1.15,2013-02-08 16:22:00,
2013-02-08 10:23:00,13.9,12.3,28.92,SW,222,6.0,13.0,93,0.00,,,0.00,0,Wunderground v.1.15,2013-02-08 16:23:00,
2013-02-08 10:25:00,13.9,12.3,28.92,South,175,9.0,13.0,93,0.00,,,0.00,0,Wunderground v.1.15,2013-02-08 16:25:00,
2013-02-08 10:26:00,14.0,12.3,28.92,SSW,198,9.0,13.0,93,0.00,,,0.00,0,Wunderground v.1.15,2013-02-08 16:26:00,
2013-02-08 10:27:00,14.0,12.3,28.92,South,170,1.0,13.0,93,0.00,,,0.00,0,Wunderground v.1.15,2013-02-08 16:27:00,
2013-02-08 10:28:00,14.0,12.3,28.92,SSE,168,6.0,13.0,93,0.00,,,0.00,0,Wunderground v.1.15,2013-02-08 16:28:00,
2013-02-08 10:31:00,14.2,12.5,28.92,SW,216,4.0,4.0,93,0.00,,,0.00,0,Wunderground v.1.15,2013-02-08 16:31:00,
2013-02-08 10:32:00,14.3,12.6,28.92,SW,223,6.0,6.0,93,0.00,,,0.00,0,Wunderground v.1.15,2013-02-08 16:32:00,
2013-02-08 10:34:00,14.3,12.6,28.92,SSW,193,9.0,10.0,93,0.00,,,0.00,0,Wunderground v.1.15,2013-02-08 16:34:00,
2013-02-08 10:37:00,14.4,12.7,28.92,South,177,6.0,12.0,93,0.00,,,0.00,0,Wunderground v.1.15,2013-02-08 16:37:00,
2013-02-08 10:38:00,14.4,12.7,28.92,South,169,8.0,13.0,93,0.00,,,0.00,0,Wunderground v.1.15,2013-02-08 16:38:00,
2013-02-08 10:39:00,14.3,12.6,28.92,SSE,160,1.0,13.0,93,0.00,,,0.00,0,Wunderground v.1.15,2013-02-08 16:39:00,
2013-02-08 10:42:00,14.6,12.9,28.92,SSW,196,7.0,8.0,93,0.00,,,0.00,0,Wunderground v.1.15,2013-02-08 16:42:00,
2013-02-08 10:43:00,14.6,12.9,28.92,South,187,3.0,8.0,93,0.00,,,0.00,0,Wunderground v.1.15,2013-02-08 16:43:00,
2013-02-08 10:44:00,14.7,13.0,28.92,SSW,204,9.0,9.0,93,0.00,,,0.00,0,Wunderground v.1.15,2013-02-08 16:44:00,
2013-02-08 10:48:00,14.9,13.2,28.92,South,176,12.0,12.0,93,0.00,,,0.00,0,Wunderground v.1.15,2013-02-08 16:48:00,
2013-02-08 10:49:00,15.0,13.3,28.92,SSW,211,3.0,12.0,93,0.00,,,0.00,0,Wunderground v.1.15,2013-02-08 16:49:00,
2013-02-08 10:53:00,15.2,13.5,28.92,SW,220,10.0,14.0,93,0.00,,,0.00,0,Wunderground v.1.15,2013-02-08 16:53:00,
2013-02-08 10:55:00,15.2,13.5,28.92,SSE,149,3.0,14.0,93,0.00,,,0.00,0,Wunderground v.1.15,2013-02-08 16:55:00,
2013-02-08 10:58:00,15.2,13.5,28.92,SSW,194,3.0,14.0,93,0.00,,,0.00,0,Wunderground v.1.15,2013-02-08 16:58:00,
2013-02-08 10:59:00,15.2,13.3,28.92,SSE,153,8.0,14.0,92,0.00,,,0.00,0,Wunderground v.1.15,2013-02-08 16:59:00,
2013-02-08 11:00:00,15.2,13.5,28.92,South,189,1.0,1.0,93,0.00,,,0.00,0,Wunderground v.1.15,2013-02-08 17:00:00,
2013-02-08 11:02:00,15.2,13.5,28.92,South,175,4.0,9.0,93,0.00,,,0.00,0,Wunderground v.1.15,2013-02-08 17:02:00,
2013-02-08 11:04:00,15.3,13.6,28.92,SW,223,11.0,12.0,93,0.00,,,0.00,0,Wunderground v.1.15,2013-02-08 17:04:00,
2013-02-08 11:07:00,15.3,13.4,28.92,SSW,194,1.0,12.0,92,0.00,,,0.00,0,Wunderground v.1.15,2013-02-08 17:07:00,
2013-02-08 11:09:00,15.4,13.7,28.92,South,169,13.0,13.0,93,0.00,,,0.00,0,Wunderground v.1.15,2013-02-08 17:09:00,
2013-02-08 11:10:00,15.4,13.7,28.92,SSW,211,2.0,13.0,93,0.00,,,0.00,0,Wunderground v.1.15,2013-02-08 17:10:00,
2013-02-08 11:12:00,15.4,13.5,28.92,South,190,10.0,11.0,92,0.00,,,0.00,0,Wunderground v.1.15,2013-02-08 17:12:00,
2013-02-08 11:14:00,15.4,13.5,28.92,South,186,0.0,11.0,92,0.00,,,0.00,0,Wunderground v.1.15,2013-02-08 17:14:00,
2013-02-08 11:16:00,15.5,13.8,28.92,SSW,193,2.0,11.0,93,0.00,,,0.00,0,Wunderground v.1.15,2013-02-08 17:16:00,
2013-02-08 11:17:00,15.6,13.9,28.92,South,182,6.0,11.0,93,0.00,,,0.00,0,Wunderground v.1.15,2013-02-08 17:17:00,
2013-02-08 11:19:00,15.7,13.8,28.92,SSW,196,0.0,11.0,92,0.00,,,0.00,0,Wunderground v.1.15,2013-02-08 17:19:00,
2013-02-08 11:21:00,15.8,14.1,28.92,South,188,4.0,10.0,93,0.00,,,0.00,0,Wunderground v.1.15,2013-02-08 17:21:00,
2013-02-08 11:22:00,15.8,13.9,28.92,SSE,152,10.0,11.0,92,0.00,,,0.00,0,Wunderground v.1.15,2013-02-08 17:22:00,
2013-02-08 11:23:00,15.8,13.9,28.92,SSW,204,4.0,13.0,92,0.00,,,0.00,0,Wunderground v.1.15,2013-02-08 17:23:00,
2013-02-08 11:24:00,15.8,13.9,28.92,SSE,157,12.0,13.0,92,0.00,,,0.00,0,Wunderground v.1.15,2013-02-08 17:24:00,
2013-02-08 11:26:00,15.8,13.9,28.91,SSE,150,1.0,13.0,92,0.00,,,0.00,0,Wunderground v.1.15,2013-02-08 17:26:00,
2013-02-08 11:28:00,15.9,14.0,28.92,SSE,162,2.0,13.0,92,0.00,,,0.00,0,Wunderground v.1.15,2013-02-08 17:28:00,
2013-02-08 11:29:00,15.9,14.0,28.92,SSE,165,8.0,13.0,92,0.00,,,0.00,0,Wunderground v.1.15,2013-02-08 17:29:00,
2013-02-08 11:31:00,16.0,14.1,28.91,South,173,5.0,11.0,92,0.00,,,0.00,0,Wunderground v.1.15,2013-02-08 17:31:00,
2013-02-08 11:35:00,16.5,14.6,28.91,SSW,206,2.0,11.0,92,0.00,,,0.00,0,Wunderground v.1.15,2013-02-08 17:35:00,
2013-02-08 11:37:00,16.6,14.7,28.91,SSW,205,4.0,11.0,92,0.00,,,0.00,0,Wunderground v.1.15,2013-02-08 17:37:00,
2013-02-08 11:41:00,16.8,14.6,28.91,South,177,3.0,3.0,91,0.00,,,0.00,0,Wunderground v.1.15,2013-02-08 17:41:00,
2013-02-08 11:42:00,16.8,14.6,28.90,South,187,8.0,11.0,91,0.00,,,0.00,0,Wunderground v.1.15,2013-02-08 17:42:00,
2013-02-08 11:46:00,16.7,14.3,28.90,SSE,167,8.0,13.0,90,0.00,,,0.00,0,Wunderground v.1.15,2013-02-08 17:46:00,
2013-02-08 11:47:00,16.6,14.2,28.90,SSW,208,7.0,13.0,90,0.00,,,0.00,0,Wunderground v.1.15,2013-02-08 17:47:00,
2013-02-08 11:51:00,16.6,14.2,28.90,SSE,159,6.0,12.0,90,0.00,,,0.00,0,Wunderground v.1.15,2013-02-08 17:51:00,
2013-02-08 11:53:00,16.6,13.9,28.90,SSE,148,0.0,12.0,89,0.00,,,0.00,0,Wunderground v.1.15,2013-02-08 17:53:00,
2013-02-08 11:57:00,16.9,14.5,28.90,South,188,1.0,13.0,90,0.00,,,0.00,0,Wunderground v.1.15,2013-02-08 17:57:00,
2013-02-08 11:58:00,17.0,14.6,28.90,SSW,198,9.0,13.0,90,0.00,,,0.00,0,Wunderground v.1.15,2013-02-08 17:58:00,
2013-02-08 12:02:00,17.1,14.4,28.90,South,174,0.0,13.0,89,0.00,,,0.00,0,Wunderground v.1.15,2013-02-08 18:02:00,
2013-02-08 12:03:00,17.1,14.4,28.90,SSW,198,4.0,13.0,89,0.00,,,0.00,0,Wunderground v.1.15,2013-02-08 18:03:00,
2013-02-08 12:04:00,17.2,14.5,28.90,South,185,8.0,16.0,89,0.00,,,0.00,0,Wunderground v.1.15,2013-02-08 18:04:00,
2013-02-08 12:07:00,17.2,14.5,28.89,South,189,11.0,16.0,89,0.00,,,0.00,0,Wunderground v.1.15,2013-02-08 18:07:00,
2013-02-08 12:08:00,17.2,14.3,28.90,South,191,4.0,16.0,88,0.00,,,0.00,0,Wunderground v.1.15,2013-02-08 18:08:00,
2013-02-08 12:11:00,17.3,14.6,28.89,SSE,163,5.0,10.0,89,0.00,,,0.00,0,Wunderground v.1.15,2013-02-08 18:11:00,
2013-02-08 12:12:00,17.3,14.6,28.89,South,169,9.0,12.0,89,0.00,,,0.00,0,Wunderground v.1.15,2013-02-08 18:12:00,
2013-02-08 12:13:00,17.2,14.3,28.89,South,178,10.0,13.0,88,0.00,,,0.00,0,Wunderground v.1.15,2013-02-08 18:13:00,
2013-02-08 12:16:00,17.2,14.5,28.89,South,187,7.0,18.0,89,0.00,,,0.00,0,Wunderground v.1.15,2013-02-08 18:16:00,
2013-02-08 12:17:00,17.3,14.4,28.89,South,185,4.0,18.0,88,0.00,,,0.00,0,Wunderground v.1.15,2013-02-08 18:17:00,
2013-02-08 12:18:00,17.3,14.6,28.89,South,175,18.0,18.0,89,0.00,,,0.00,0,Wunderground v.1.15,2013-02-08 18:18:00,
2013-02-08 12:19:00,17.3,14.6,28.89,South,178,6.0,18.0,89,0.00,,,0.00,0,Wunderground v.1.15,2013-02-08 18:19:00,
2013-02-08 12:22:00,17.5,14.8,28.89,SSW,196,3.0,9.0,89,0.00,,,0.00,0,Wunderground v.1.15,2013-02-08 18:22:00,
2013-02-08 12:24:00,17.6,14.9,28.89,SSE,165,7.0,14.0,89,0.00,,,0.00,0,Wunderground v.1.15,2013-02-08 18:24:00,
2013-02-08 12:28:00,17.9,14.9,28.89,SSW,197,11.0,14.0,88,0.00,,,0.00,0,Wunderground v.1.15,2013-02-08 18:28:00,
2013-02-08 12:29:00,18.1,15.4,28.89,South,185,2.0,14.0,89,0.00,,,0.00,0,Wunderground v.1.15,2013-02-08 18:29:00,
2013-02-08 12:30:00,18.2,15.5,28.89,SE,126,1.0,14.0,89,0.00,,,0.00,0,Wunderground v.1.15,2013-02-08 18:30:00,
2013-02-08 12:33:00,18.4,15.4,28.89,SSE,168,12.0,12.0,88,0.00,,,0.00,0,Wunderground v.1.15,2013-02-08 18:33:00,
2013-02-08 12:34:00,18.4,15.4,28.89,South,174,6.0,12.0,88,0.00,,,0.00,0,Wunderground v.1.15,2013-02-08 18:34:00,
2013-02-08 12:36:00,18.3,15.3,28.89,SSE,160,5.0,12.0,88,0.00,,,0.00,0,Wunderground v.1.15,2013-02-08 18:36:00,
2013-02-08 12:39:00,18.2,15.0,28.89,South,180,12.0,16.0,87,0.00,,,0.00,0,Wunderground v.1.15,2013-02-08 18:39:00,
2013-02-08 12:41:00,18.2,15.0,28.88,South,185,7.0,13.0,87,0.00,,,0.00,0,Wunderground v.1.15,2013-02-08 18:41:00,
2013-02-08 12:44:00,18.3,15.3,28.88,SSE,167,9.0,13.0,88,0.00,,,0.00,0,Wunderground v.1.15,2013-02-08 18:44:00,
2013-02-08 12:45:00,18.3,15.3,28.88,South,173,3.0,13.0,88,0.00,,,0.00,0,Wunderground v.1.15,2013-02-08 18:45:00,
2013-02-08 12:47:00,18.2,15.0,28.89,SSE,160,9.0,17.0,87,0.00,,,0.00,0,Wunderground v.1.15,2013-02-08 18:47:00,
2013-02-08 12:49:00,18.1,14.9,28.88,SSE,162,2.0,17.0,87,0.00,,,0.00,0,Wunderground v.1.15,2013-02-08 18:49:00,
2013-02-08 12:50:00,18.0,14.8,28.88,SSE,166,3.0,3.0,87,0.00,,,0.00,0,Wunderground v.1.15,2013-02-08 18:50:00,
2013-02-08 12:52:00,18.0,14.8,28.88,South,174,9.0,11.0,87,0.00,,,0.00,0,Wunderground v.1.15,2013-02-08 18:52:00,
2013-02-08 12:54:00,18.0,15.0,28.89,South,176,4.0,12.0,88,0.00,,,0.00,0,Wunderground v.1.15,2013-02-08 18:54:00,
2013-02-08 12:55:00,18.0,15.0,28.89,SSW,201,8.0,12.0,88,0.00,,,0.00,0,Wunderground v.1.15,2013-02-08 18:55:00,
2013-02-08 12:58:00,18.0,14.8,28.88,South,170,9.0,13.0,87,0.00,,,0.00,0,Wunderground v.1.15,2013-02-08 18:58:00,
2013-02-08 13:00:00,17.9,14.9,28.88,SSE,168,13.0,13.0,88,0.00,,,0.00,0,Wunderground v.1.15,2013-02-08 19:00:00,
2013-02-08 13:04:00,18.1,15.1,28.88,SSW,203,1.0,13.0,88,0.00,,,0.00,0,Wunderground v.1.15,2013-02-08 19:04:00,
2013-02-08 13:05:00,18.1,15.1,28.88,SSE,157,0.0,13.0,88,0.00,,,0.00,0,Wunderground v.1.15,2013-02-08 19:05:00,
2013-02-08 13:06:00,18.2,15.2,28.88,SSE,159,5.0,13.0,88,0.00,,,0.00,0,Wunderground v.1.15,2013-02-08 19:06:00,
2013-02-08 13:07:00,18.2,15.2,28.88,South,176,0.0,13.0,88,0.00,,,0.00,0,Wunderground v.1.15,2013-02-08 19:07:00,
2013-02-08 13:10:00,18.3,15.3,28.88,SSW,193,8.0,15.0,88,0.00,,,0.00,0,Wunderground v.1.15,2013-02-08 19:10:00,
2013-02-08 13:13:00,18.3,15.3,28.87,South,185,9.0,10.0,88,0.00,,,0.00,0,Wunderground v.1.15,2013-02-08 19:13:00,
2013-02-08 13:14:00,18.3,15.6,28.87,SSE,163,8.0,10.0,89,0.00,,,0.00,0,Wunderground v.1.15,2013-02-08 19:14:00,
2013-02-08 13:15:00,18.3,15.3,28.87,SSE,162,4.0,10.0,88,0.00,,,0.00,0,Wunderground v.1.15,2013-02-08 19:15:00,
2013-02-08 13:18:00,18.5,15.8,28.87,SSE,163,12.0,15.0,89,0.00,,,0.00,0,Wunderground v.1.15,2013-02-08 19:18:00,
2013-02-08 13:19:00,18.5,15.8,28.87,SSE,168,7.0,15.0,89,0.00,,,0.00,0,Wunderground v.1.15,2013-02-08 19:19:00,
2013-02-08 13:20:00,18.6,15.9,28.87,SSE,154,2.0,15.0,89,0.00,,,0.00,0,Wunderground v.1.15,2013-02-08 19:20:00,
2013-02-08 13:24:00,18.8,16.1,28.87,South,184,3.0,14.0,89,0.00,,,0.00,0,Wunderground v.1.15,2013-02-08 19:24:00,
2013-02-08 13:25:00,19.0,16.3,28.87,South,174,11.0,14.0,89,0.00,,,0.00,0,Wunderground v.1.15,2013-02-08 19:25:00,
2013-02-08 13:26:00,19.0,16.3,28.87,SSW,192,4.0,14.0,89,0.00,,,0.00,0,Wunderground v.1.15,2013-02-08 19:26:00,
2013-02-08 13:29:00,19.2,16.5,28.87,SSE,161,11.0,14.0,89,0.00,,,0.00,0,Wunderground v.1.15,2013-02-08 19:29:00,
2013-02-08 13:31:00,19.4,16.7,28.87,South,186,3.0,3.0,89,0.00,,,0.00,0,Wunderground v.1.15,2013-02-08 19:31:00,
2013-02-08 13:32:00,19.4,16.7,28.87,South,176,5.0,10.0,89,0.00,,,0.00,0,Wunderground v.1.15,2013-02-08 19:32:00,
2013-02-08 13:34:00,19.6,16.6,28.87,South,184,5.0,10.0,88,0.00,,,0.00,0,Wunderground v.1.15,2013-02-08 19:34:00,
2013-02-08 13:37:00,19.7,16.7,28.87,SSE,160,3.0,15.0,88,0.00,,,0.00,0,Wunderground v.1.15,2013-02-08 19:37:00,
2013-02-08 13:42:00,19.6,16.6,28.86,SSW,199,5.0,5.0,88,0.00,,,0.00,0,Wunderground v.1.15,2013-02-08 19:42:00,
2013-02-08 13:43:00,19.6,16.6,28.87,SSE,161,4.0,11.0,88,0.00,,,0.00,0,Wunderground v.1.15,2013-02-08 19:43:00,
2013-02-08 13:48:00,20.3,17.6,28.87,WSW,237,3.0,13.0,89,0.00,,,0.00,0,Wunderground v.1.15,2013-02-08 19:48:00,
2013-02-08 13:53:00,20.8,17.8,28.87,SSW,206,9.0,9.0,88,0.00,,,0.00,0,Wunderground v.1.15,2013-02-08 19:53:00,
2013-02-08 13:55:00,20.8,17.8,28.87,SSE,153,11.0,15.0,88,0.00,,,0.00,0,Wunderground v.1.15,2013-02-08 19:55:00,
2013-02-08 14:00:00,20.6,17.3,28.86,SSE,164,2.0,15.0,87,0.00,,,0.00,0,Wunderground v.1.15,2013-02-08 20:00:00,
2013-02-08 14:01:00,20.6,17.3,28.86,South,189,10.0,18.0,87,0.00,,,0.00,0,Wunderground v.1.15,2013-02-08 20:01:00,
2013-02-08 14:05:00,20.4,17.1,28.86,SSE,152,10.0,18.0,87,0.00,,,0.00,0,Wunderground v.1.15,2013-02-08 20:05:00,
2013-02-08 14:06:00,20.4,17.1,28.86,SSE,166,10.0,18.0,87,0.00,,,0.00,0,Wunderground v.1.15,2013-02-08 20:06:00,
2013-02-08 14:10:00,20.1,16.9,28.86,SSE,165,6.0,6.0,87,0.00,,,0.00,0,Wunderground v.1.15,2013-02-08 20:10:00,
2013-02-08 14:11:00,20.0,16.8,28.86,South,183,4.0,8.0,87,0.00,,,0.00,0,Wunderground v.1.15,2013-02-08 20:11:00,
2013-02-08 14:12:00,20.0,16.8,28.86,SSE,168,2.0,9.0,87,0.00,,,0.00,0,Wunderground v.1.15,2013-02-08 20:12:00,
2013-02-08 14:15:00,19.9,16.7,28.86,SSE,162,3.0,14.0,87,0.00,,,0.00,0,Wunderground v.1.15,2013-02-08 20:15:00,
2013-02-08 14:16:00,19.9,16.7,28.86,SSE,157,3.0,14.0,87,0.00,,,0.00,0,Wunderground v.1.15,2013-02-08 20:16:00,
2013-02-08 14:17:00,19.9,16.7,28.85,SSW,205,2.0,14.0,87,0.00,,,0.00,0,Wunderground v.1.15,2013-02-08 20:17:00,
2013-02-08 14:21:00,20.0,16.8,28.86,SSE,161,1.0,4.0,87,0.00,,,0.00,0,Wunderground v.1.15,2013-02-08 20:21:00,
2013-02-08 14:24:00,20.0,16.8,28.85,SSE,151,2.0,13.0,87,0.00,,,0.00,0,Wunderground v.1.15,2013-02-08 20:24:00,
2013-02-08 14:26:00,20.0,16.8,28.85,SSW,193,5.0,13.0,87,0.00,,,0.00,0,Wunderground v.1.15,2013-02-08 20:26:00,
2013-02-08 14:29:00,19.9,16.7,28.85,SSE,162,9.0,16.0,87,0.00,,,0.00,0,Wunderground v.1.15,2013-02-08 20:29:00,
2013-02-08 14:31:00,19.9,16.7,28.85,SSE,159,8.0,11.0,87,0.00,,,0.00,0,Wunderground v.1.15,2013-02-08 20:31:00,
2013-02-08 14:32:00,19.8,16.6,28.85,SSE,150,5.0,11.0,87,0.00,,,0.00,0,Wunderground v.1.15,2013-02-08 20:32:00,
2013-02-08 14:35:00,19.8,16.6,28.85,South,169,5.0,12.0,87,0.00,,,0.00,0,Wunderground v.1.15,2013-02-08 20:35:00,
2013-02-08 14:37:00,19.8,16.6,28.85,SE,140,8.0,12.0,87,0.00,,,0.00,0,Wunderground v.1.15,2013-02-08 20:37:00,
2013-02-08 14:41:00,19.9,16.7,28.85,South,183,7.0,8.0,87,0.00,,,0.00,0,Wunderground v.1.15,2013-02-08 20:41:00,
2013-02-08 14:42:00,19.9,16.7,28.84,South,174,10.0,10.0,87,0.00,,,0.00,0,Wunderground v.1.15,2013-02-08 20:42:00,
2013-02-08 14:43:00,20.0,16.8,28.85,SSE,155,5.0,10.0,87,0.00,,,0.00,0,Wunderground v.1.15,2013-02-08 20:43:00,
2013-02-08 14:47:00,20.1,17.1,28.85,SSW,200,6.0,10.0,88,0.00,,,0.00,0,Wunderground v.1.15,2013-02-08 20:47:00,
2013-02-08 14:49:00,20.1,17.1,28.84,South,173,5.0,10.0,88,0.00,,,0.00,0,Wunderground v.1.15,2013-02-08 20:49:00,
2013-02-08 14:50:00,20.1,17.1,28.84,SSE,158,9.0,14.0,88,0.00,,,0.00,0,Wunderground v.1.15,2013-02-08 20:50:00,
2013-02-08 14:52:00,20.1,16.9,28.84,SSE,165,9.0,9.0,87,0.00,,,0.00,0,Wunderground v.1.15,2013-02-08 20:52:00,
2013-02-08 14:54:00,20.1,16.9,28.84,SSE,165,4.0,9.0,87,0.00,,,0.00,0,Wunderground v.1.15,2013-02-08 20:54:00,
2013-02-08 14:55:00,20.1,16.9,28.84,South,180,13.0,13.0,87,0.00,,,0.00,0,Wunderground v.1.15,2013-02-08 20:55:00,
2013-02-08 14:58:00,20.1,16.9,28.84,South,185,4.0,17.0,87,0.00,,,0.00,0,Wunderground v.1.15,2013-02-08 20:58:00,
2013-02-08 15:00:00,20.1,16.9,28.84,SE,143,3.0,17.0,87,0.00,,,0.00,0,Wunderground v.1.15,2013-02-08 21:00:00,
2013-02-08 15:04:00,20.2,17.0,28.84,SSE,164,9.0,13.0,87,0.00,,,0.00,0,Wunderground v.1.15,2013-02-08 21:04:00,
2013-02-08 15:05:00,20.3,17.3,28.83,South,190,5.0,13.0,88,0.00,,,0.00,0,Wunderground v.1.15,2013-02-08 21:05:00,
2013-02-08 15:06:00,20.3,17.3,28.83,South,176,1.0,13.0,88,0.00,,,0.00,0,Wunderground v.1.15,2013-02-08 21:06:00,
2013-02-08 15:09:00,20.6,17.6,28.83,South,180,11.0,13.0,88,0.00,,,0.00,0,Wunderground v.1.15,2013-02-08 21:09:00,
2013-02-08 15:10:00,20.8,17.8,28.83,SSE,165,4.0,5.0,88,0.00,,,0.00,0,Wunderground v.1.15,2013-02-08 21:10:00,
2013-02-08 15:11:00,20.8,17.8,28.83,SSE,165,2.0,11.0,88,0.00,,,0.00,0,Wunderground v.1.15,2013-02-08 21:11:00,
2013-02-08 15:14:00,21.1,17.8,28.83,SSE,164,15.0,18.0,87,0.00,,,0.00,0,Wunderground v.1.15,2013-02-08 21:14:00,
2013-02-08 15:16:00,21.2,17.9,28.83,SSE,161,8.0,18.0,87,0.00,,,0.00,0,Wunderground v.1.15,2013-02-08 21:16:00,
2013-02-08 15:17:00,21.2,17.9,28.83,SSW,198,4.0,18.0,87,0.00,,,0.00,0,Wunderground v.1.15,2013-02-08 21:17:00,
2013-02-08 15:20:00,21.6,18.3,28.83,SSE,163,3.0,18.0,87,0.00,,,0.00,0,Wunderground v.1.15,2013-02-08 21:20:00,
2013-02-08 15:22:00,22.0,18.7,28.83,SSE,158,9.0,9.0,87,0.00,,,0.00,0,Wunderground v.1.15,2013-02-08 21:22:00,
2013-02-08 15:25:00,22.2,18.7,28.83,South,178,7.0,17.0,86,0.00,,,0.00,0,Wunderground v.1.15,2013-02-08 21:25:00,
2013-02-08 15:28:00,22.3,18.5,28.83,South,178,12.0,17.0,85,0.00,,,0.00,0,Wunderground v.1.15,2013-02-08 21:28:00,
2013-02-08 15:30:00,22.3,18.5,28.83,South,179,2.0,17.0,85,0.00,,,0.00,0,Wunderground v.1.15,2013-02-08 21:30:00,
2013-02-08 15:33:00,22.6,19.0,28.83,SSE,164,4.0,7.0,86,0.00,,,0.00,0,Wunderground v.1.15,2013-02-08 21:33:00,
2013-02-08 15:34:00,22.7,18.9,28.83,SW,220,9.0,11.0,85,0.00,,,0.00,0,Wunderground v.1.15,2013-02-08 21:34:00,
2013-02-08 15:36:00,22.8,19.0,28.83,SSE,155,14.0,14.0,85,0.00,,,0.00,0,Wunderground v.1.15,2013-02-08 21:36:00,
2013-02-08 15:39:00,22.7,18.6,28.83,SSE,152,4.0,14.0,84,0.00,,,0.00,0,Wunderground v.1.15,2013-02-08 21:39:00,
2013-02-08 15:42:00,22.8,18.7,28.83,South,184,9.0,12.0,84,0.00,,,0.00,0,Wunderground v.1.15,2013-02-08 21:42:00,
2013-02-08 15:44:00,22.7,18.6,28.83,South,187,1.0,14.0,84,0.00,,,0.00,0,Wunderground v.1.15,2013-02-08 21:44:00,
2013-02-08 15:45:00,22.7,18.6,28.83,SSE,162,0.0,14.0,84,0.00,,,0.00,0,Wunderground v.1.15,2013-02-08 21:45:00,
2013-02-08 15:48:00,22.8,18.7,28.83,SSE,164,6.0,14.0,84,0.00,,,0.00,0,Wunderground v.1.15,2013-02-08 21:48:00,
2013-02-08 15:49:00,22.6,18.2,28.83,SSE,165,4.0,14.0,83,0.00,,,0.00,0,Wunderground v.1.15,2013-02-08 21:49:00,
2013-02-08 15:50:00,22.5,18.1,28.83,ESE,112,0.0,14.0,83,0.00,,,0.00,0,Wunderground v.1.15,2013-02-08 21:50:00,
2013-02-08 15:53:00,22.2,17.8,28.83,ESE,114,6.0,11.0,83,0.00,,,0.00,0,Wunderground v.1.15,2013-02-08 21:53:00,
2013-02-08 15:54:00,22.2,18.1,28.83,South,169,2.0,11.0,84,0.00,,,0.00,0,Wunderground v.1.15,2013-02-08 21:54:00,
2013-02-08 15:55:00,22.2,18.1,28.82,South,179,3.0,11.0,84,0.00,,,0.00,0,Wunderground v.1.15,2013-02-08 21:55:00,
2013-02-08 15:58:00,22.2,18.1,28.83,SSE,163,3.0,15.0,84,0.00,,,0.00,0,Wunderground v.1.15,2013-02-08 21:58:00,
2013-02-08 16:00:00,22.1,18.0,28.83,SSE,149,4.0,4.0,84,0.00,,,0.00,0,Wunderground v.1.15,2013-02-08 22:00:00,
2013-02-08 16:01:00,22.1,18.0,28.83,SSE,151,4.0,4.0,84,0.00,,,0.00,0,Wunderground v.1.15,2013-02-08 22:01:00,
2013-02-08 16:04:00,21.9,17.8,28.82,SSE,164,11.0,12.0,84,0.00,,,0.00,0,Wunderground v.1.15,2013-02-08 22:04:00,
2013-02-08 16:07:00,21.6,17.5,28.82,SSE,152,7.0,13.0,84,0.00,,,0.00,0,Wunderground v.1.15,2013-02-08 22:07:00,
2013-02-08 16:09:00,21.5,17.4,28.82,SSE,167,4.0,13.0,84,0.00,,,0.00,0,Wunderground v.1.15,2013-02-08 22:09:00,
2013-02-08 16:12:00,21.4,17.3,28.82,South,182,9.0,9.0,84,0.00,,,0.00,0,Wunderground v.1.15,2013-02-08 22:12:00,
2013-02-08 16:15:00,21.4,17.6,28.82,SE,132,3.0,17.0,85,0.00,,,0.00,0,Wunderground v.1.15,2013-02-08 22:15:00,
2013-02-08 16:17:00,21.3,17.5,28.82,SSE,160,10.0,17.0,85,0.00,,,0.00,0,Wunderground v.1.15,2013-02-08 22:17:00,
2013-02-08 16:20:00,21.2,17.4,28.82,SSE,164,10.0,14.0,85,0.00,,,0.00,0,Wunderground v.1.15,2013-02-08 22:20:00,
2013-02-08 16:22:00,21.2,17.4,28.82,SSE,167,1.0,14.0,85,0.00,,,0.00,0,Wunderground v.1.15,2013-02-08 22:22:00,
2013-02-08 16:23:00,21.2,17.4,28.82,South,186,6.0,14.0,85,0.00,,,0.00,0,Wunderground v.1.15,2013-02-08 22:23:00,
2013-02-08 16:26:00,21.1,17.3,28.82,SSE,155,6.0,14.0,85,0.00,,,0.00,0,Wunderground v.1.15,2013-02-08 22:26:00,
2013-02-08 16:28:00,21.1,17.3,28.82,South,174,6.0,14.0,85,0.00,,,0.00,0,Wunderground v.1.15,2013-02-08 22:28:00,
2013-02-08 16:32:00,21.0,17.5,28.82,SSE,165,0.0,4.0,86,0.00,,,0.00,0,Wunderground v.1.15,2013-02-08 22:32:00,
2013-02-08 16:36:00,21.0,17.5,28.82,South,174,4.0,4.0,86,0.00,,,0.00,0,Wunderground v.1.15,2013-02-08 22:36:00,
2013-02-08 16:38:00,21.0,17.5,28.82,South,173,7.0,8.0,86,0.00,,,0.00,0,Wunderground v.1.15,2013-02-08 22:38:00,
2013-02-08 16:41:00,20.9,17.4,28.81,South,178,2.0,3.0,86,0.00,,,0.00,0,Wunderground v.1.15,2013-02-08 22:41:00,
2013-02-08 16:43:00,20.9,17.4,28.81,South,188,12.0,14.0,86,0.00,,,0.00,0,Wunderground v.1.15,2013-02-08 22:43:00,
2013-02-08 16:46:00,21.0,17.5,28.82,SSE,158,14.0,14.0,86,0.00,,,0.00,0,Wunderground v.1.15,2013-02-08 22:46:00,
2013-02-08 16:48:00,21.0,17.5,28.82,South,189,4.0,16.0,86,0.00,,,0.00,0,Wunderground v.1.15,2013-02-08 22:48:00,
2013-02-08 16:51:00,20.9,17.4,28.82,SSE,167,3.0,8.0,86,0.00,,,0.00,0,Wunderground v.1.15,2013-02-08 22:51:00,
2013-02-08 16:52:00,21.0,17.5,28.82,SSE,168,9.0,13.0,86,0.00,,,0.00,0,Wunderground v.1.15,2013-02-08 22:52:00,
2013-02-08 16:53:00,20.9,17.4,28.82,South,189,9.0,13.0,86,0.00,,,0.00,0,Wunderground v.1.15,2013-02-08 22:53:00,
2013-02-08 16:56:00,20.8,17.3,28.82,South,182,5.0,13.0,86,0.00,,,0.00,0,Wunderground v.1.15,2013-02-08 22:56:00,
2013-02-08 16:57:00,20.8,17.3,28.82,SSE,150,4.0,13.0,86,0.00,,,0.00,0,Wunderground v.1.15,2013-02-08 22:57:00,
2013-02-08 16:58:00,20.8,17.3,28.82,SSE,160,12.0,13.0,86,0.00,,,0.00,0,Wunderground v.1.15,2013-02-08 22:58:00,
2013-02-08 17:05:00,20.7,17.2,28.82,SSE,150,2.0,2.0,86,0.00,,,0.00,0,Wunderground v.1.15,2013-02-08 23:05:00,
2013-02-08 17:10:00,20.7,17.2,28.82,South,191,6.0,13.0,86,0.00,,,0.00,0,Wunderground v.1.15,2013-02-08 23:10:00,
2013-02-08 17:15:00,20.7,17.2,28.82,SSE,160,4.0,8.0,86,0.00,,,0.00,0,Wunderground v.1.15,2013-02-08 23:15:00,
2013-02-08 17:16:00,20.7,17.4,28.81,SW,224,1.0,8.0,87,0.00,,,0.00,0,Wunderground v.1.15,2013-02-08 23:16:00,
2013-02-08 17:21:00,20.7,17.4,28.81,SSE,163,4.0,8.0,87,0.00,,,0.00,0,Wunderground v.1.15,2013-02-08 23:21:00,
2013-02-08 17:27:00,20.8,17.5,28.81,SSW,193,3.0,13.0,87,0.00,,,0.00,0,Wunderground v.1.15,2013-02-08 23:27:00,
2013-02-08 17:32:00,20.8,17.5,28.81,South,182,4.0,13.0,87,0.00,,,0.00,0,Wunderground v.1.15,2013-02-08 23:32:00,
2013-02-08 17:37:00,20.8,17.5,28.81,SSE,166,2.0,11.0,87,0.00,,,0.00,0,Wunderground v.1.15,2013-02-08 23:37:00,
2013-02-08 17:42:00,20.9,17.9,28.80,SSE,168,8.0,13.0,88,0.00,,,0.00,0,Wunderground v.1.15,2013-02-08 23:42:00,
2013-02-08 17:43:00,20.9,17.9,28.80,SSE,162,5.0,13.0,88,0.00,,,0.00,0,Wunderground v.1.15,2013-02-08 23:43:00,
2013-02-08 17:48:00,21.0,18.0,28.80,SSW,206,8.0,15.0,88,0.00,,,0.00,0,Wunderground v.1.15,2013-02-08 23:48:00,
2013-02-08 17:49:00,21.0,18.0,28.80,SSW,196,6.0,15.0,88,0.00,,,0.00,0,Wunderground v.1.15,2013-02-08 23:49:00,
2013-02-08 17:53:00,21.0,18.0,28.80,SSW,203,4.0,15.0,88,0.00,,,0.00,0,Wunderground v.1.15,2013-02-08 23:53:00,
2013-02-08 17:54:00,21.0,18.0,28.80,SSW,201,7.0,15.0,88,0.00,,,0.00,0,Wunderground v.1.15,2013-02-08 23:54:00,
2013-02-08 17:58:00,21.0,18.0,28.80,SSE,161,6.0,11.0,88,0.00,,,0.00,0,Wunderground v.1.15,2013-02-08 23:58:00,
2013-02-08 17:59:00,21.0,18.0,28.80,South,185,0.0,11.0,88,0.00,,,0.00,0,Wunderground v.1.15,2013-02-08 23:59:00,
2013-02-08 18:01:00,21.0,18.0,28.80,SSE,150,4.0,5.0,88,0.00,,,0.00,0,Wunderground v.1.15,2013-02-09 00:01:00,
2013-02-08 18:03:00,21.0,18.0,28.80,South,184,10.0,13.0,88,0.00,,,0.00,0,Wunderground v.1.15,2013-02-09 00:03:00,
2013-02-08 18:04:00,21.1,18.1,28.80,South,181,11.0,13.0,88,0.00,,,0.00,0,Wunderground v.1.15,2013-02-09 00:04:00,
2013-02-08 18:07:00,21.1,18.4,28.80,SSW,206,20.0,20.0,89,0.00,,,0.00,0,Wunderground v.1.15,2013-02-09 00:07:00,
2013-02-08 18:09:00,21.2,18.2,28.80,SSE,166,4.0,20.0,88,0.00,,,0.00,0,Wunderground v.1.15,2013-02-09 00:09:00,
2013-02-08 18:12:00,21.2,18.2,28.79,South,171,7.0,14.0,88,0.00,,,0.00,0,Wunderground v.1.15,2013-02-09 00:12:00,
2013-02-08 18:14:00,21.1,18.1,28.79,SSE,159,12.0,14.0,88,0.00,,,0.00,0,Wunderground v.1.15,2013-02-09 00:14:00,
2013-02-08 18:16:00,21.1,18.1,28.79,South,190,9.0,14.0,88,0.00,,,0.00,0,Wunderground v.1.15,2013-02-09 00:16:00,
2013-02-08 18:17:00,21.1,18.1,28.79,SSW,201,15.0,15.0,88,0.00,,,0.00,0,Wunderground v.1.15,2013-02-09 00:17:00,
2013-02-08 18:20:00,21.0,18.0,28.79,SSE,157,4.0,15.0,88,0.00,,,0.00,0,Wunderground v.1.15,2013-02-09 00:20:00,
2013-02-08 18:21:00,21.0,18.0,28.79,South,181,9.0,9.0,88,0.00,,,0.00,0,Wunderground v.1.15,2013-02-09 00:21:00,
2013-02-08 18:23:00,21.0,18.3,28.80,SSW,208,4.0,9.0,89,0.00,,,0.00,0,Wunderground v.1.15,2013-02-09 00:23:00,
2013-02-08 18:25:00,20.9,17.9,28.79,SSE,156,4.0,9.0,88,0.00,,,0.00,0,Wunderground v.1.15,2013-02-09 00:25:00,
2013-02-08 18:26:00,20.9,17.9,28.79,SSE,163,5.0,9.0,88,0.00,,,0.00,0,Wunderground v.1.15,2013-02-09 00:26:00,
2013-02-08 18:27:00,20.8,18.1,28.79,SSE,159,4.0,9.0,89,0.00,,,0.00,0,Wunderground v.1.15,2013-02-09 00:27:00,
2013-02-08 18:29:00,20.8,17.8,28.79,South,179,1.0,9.0,88,0.00,,,0.00,0,Wunderground v.1.15,2013-02-09 00:29:00,
2013-02-08 18:31:00,20.7,18.0,28.79,SSE,164,5.0,5.0,89,0.00,,,0.00,0,Wunderground v.1.15,2013-02-09 00:31:00,
2013-02-08 18:32:00,20.7,18.0,28.79,SSW,193,2.0,8.0,89,0.00,,,0.00,0,Wunderground v.1.15,2013-02-09 00:32:00,
2013-02-08 18:34:00,20.6,17.9,28.79,South,183,1.0,8.0,89,0.00,,,0.00,0,Wunderground v.1.15,2013-02-09 00:34:00,
2013-02-08 18:36:00,20.6,17.6,28.79,SSW,197,8.0,10.0,88,0.00,,,0.00,0,Wunderground v.1.15,2013-02-09 00:36:00,
2013-02-08 18:37:00,20.5,17.8,28.79,South,171,3.0,10.0,89,0.00,,,0.00,0,Wunderground v.1.15,2013-02-09 00:37:00,
2013-02-08 18:40:00,20.5,17.8,28.79,South,176,4.0,10.0,89,0.00,,,0.00,0,Wunderground v.1.15,2013-02-09 00:40:00,
2013-02-08 18:42:00,20.4,17.7,28.79,SSE,156,5.0,6.0,89,0.00,,,0.00,0,Wunderground v.1.15,2013-02-09 00:42:00,
2013-02-08 18:45:00,20.4,17.7,28.79,SSE,164,3.0,10.0,89,0.00,,,0.00,0,Wunderground v.1.15,2013-02-09 00:45:00,
2013-02-08 18:47:00,20.2,17.5,28.79,SSW,195,6.0,10.0,89,0.00,,,0.00,0,Wunderground v.1.15,2013-02-09 00:47:00,
2013-02-08 18:50:00,20.1,17.4,28.79,SSE,163,0.0,10.0,89,0.00,,,0.00,0,Wunderground v.1.15,2013-02-09 00:50:00,
2013-02-08 18:52:00,20.1,17.4,28.79,South,189,5.0,5.0,89,0.00,,,0.00,0,Wunderground v.1.15,2013-02-09 00:52:00,
2013-02-08 18:56:00,20.0,17.3,28.79,South,171,2.0,11.0,89,0.00,,,0.00,0,Wunderground v.1.15,2013-02-09 00:56:00,
2013-02-08 18:57:00,20.0,17.3,28.79,South,187,3.0,11.0,89,0.00,,,0.00,0,Wunderground v.1.15,2013-02-09 00:57:00,
2013-02-08 19:01:00,20.0,17.3,28.78,South,178,3.0,7.0,89,0.00,,,0.00,0,Wunderground v.1.15,2013-02-09 01:01:00,
2013-02-08 19:03:00,20.1,17.4,28.78,SSE,151,0.0,7.0,89,0.00,,,0.00,0,Wunderground v.1.15,2013-02-09 01:03:00,
2013-02-08 19:06:00,20.1,17.4,28.78,SSW,197,4.0,10.0,89,0.00,,,0.00,0,Wunderground v.1.15,2013-02-09 01:06:00,
2013-02-08 19:08:00,20.1,17.4,28.78,SSW,201,6.0,10.0,89,0.00,,,0.00,0,Wunderground v.1.15,2013-02-09 01:08:00,
2013-02-08 19:09:00,20.1,17.4,28.78,SSE,168,2.0,10.0,89,0.00,,,0.00,0,Wunderground v.1.15,2013-02-09 01:09:00,
2013-02-08 19:11:00,20.1,17.4,28.78,South,174,5.0,7.0,89,0.00,,,0.00,0,Wunderground v.1.15,2013-02-09 01:11:00,
2013-02-08 19:12:00,20.0,17.3,28.78,South,177,0.0,7.0,89,0.00,,,0.00,0,Wunderground v.1.15,2013-02-09 01:12:00,
2013-02-08 19:15:00,20.0,17.3,28.78,South,182,7.0,7.0,89,0.00,,,0.00,0,Wunderground v.1.15,2013-02-09 01:15:00,
2013-02-08 19:17:00,20.0,17.3,28.78,SSW,212,3.0,9.0,89,0.00,,,0.00,0,Wunderground v.1.15,2013-02-09 01:17:00,
2013-02-08 19:20:00,20.1,17.4,28.78,South,188,6.0,6.0,89,0.00,,,0.00,0,Wunderground v.1.15,2013-02-09 01:20:00,
2013-02-08 19:22:00,20.1,17.4,28.78,SSW,203,3.0,11.0,89,0.00,,,0.00,0,Wunderground v.1.15,2013-02-09 01:22:00,
2013-02-08 19:25:00,20.1,17.4,28.78,SSE,159,1.0,11.0,89,0.00,,,0.00,0,Wunderground v.1.15,2013-02-09 01:25:00,
2013-02-08 19:27:00,20.1,17.4,28.78,SSW,197,3.0,11.0,89,0.00,,,0.00,0,Wunderground v.1.15,2013-02-09 01:27:00,
2013-02-08 19:28:00,20.1,17.4,28.78,SSE,163,0.0,11.0,89,0.00,,,0.00,0,Wunderground v.1.15,2013-02-09 01:28:00,
2013-02-08 19:31:00,20.0,17.3,28.79,SSW,195,5.0,5.0,89,0.00,,,0.00,0,Wunderground v.1.15,2013-02-09 01:31:00,
2013-02-08 19:33:00,20.1,17.4,28.78,SE,131,2.0,7.0,89,0.00,,,0.00,0,Wunderground v.1.15,2013-02-09 01:33:00,
2013-02-08 19:37:00,20.0,17.3,28.79,South,171,3.0,11.0,89,0.00,,,0.00,0,Wunderground v.1.15,2013-02-09 01:37:00,
2013-02-08 19:38:00,20.0,17.3,28.78,South,188,8.0,11.0,89,0.00,,,0.00,0,Wunderground v.1.15,2013-02-09 01:38:00,
2013-02-08 19:39:00,20.0,17.3,28.78,South,188,5.0,11.0,89,0.00,,,0.00,0,Wunderground v.1.15,2013-02-09 01:39:00,
2013-02-08 19:42:00,19.9,17.2,28.78,SSW,193,4.0,4.0,89,0.00,,,0.00,0,Wunderground v.1.15,2013-02-09 01:42:00,
2013-02-08 19:43:00,19.9,17.2,28.79,SSW,198,11.0,12.0,89,0.00,,,0.00,0,Wunderground v.1.15,2013-02-09 01:43:00,
2013-02-08 19:46:00,19.9,16.9,28.79,South,187,3.0,12.0,88,0.00,,,0.00,0,Wunderground v.1.15,2013-02-09 01:46:00,
2013-02-08 19:48:00,19.9,17.2,28.79,South,189,2.0,12.0,89,0.00,,,0.00,0,Wunderground v.1.15,2013-02-09 01:48:00,
2013-02-08 19:51:00,20.0,17.3,28.79,SSE,160,3.0,4.0,89,0.00,,,0.00,0,Wunderground v.1.15,2013-02-09 01:51:00,
2013-02-08 19:52:00,19.9,17.2,28.79,SSE,166,6.0,6.0,89,0.00,,,0.00,0,Wunderground v.1.15,2013-02-09 01:52:00,
2013-02-08 19:53:00,19.9,17.2,28.78,South,187,3.0,8.0,89,0.00,,,0.00,0,Wunderground v.1.15,2013-02-09 01:53:00,
2013-02-08 19:54:00,20.0,17.3,28.78,SSE,163,3.0,8.0,89,0.00,,,0.00,0,Wunderground v.1.15,2013-02-09 01:54:00,
2013-02-08 19:57:00,19.9,17.2,28.78,SSW,196,5.0,8.0,89,0.00,,,0.00,0,Wunderground v.1.15,2013-02-09 01:57:00,
2013-02-08 19:58:00,20.0,17.3,28.79,SSW,193,9.0,9.0,89,0.00,,,0.00,0,Wunderground v.1.15,2013-02-09 01:58:00,
2013-02-08 20:00:00,20.0,17.3,28.79,SSE,163,3.0,9.0,89,0.00,,,0.00,0,Wunderground v.1.15,2013-02-09 02:00:00,
2013-02-08 20:02:00,20.1,17.4,28.79,SSE,160,3.0,7.0,89,0.00,,,0.00,0,Wunderground v.1.15,2013-02-09 02:02:00,
2013-02-08 20:04:00,20.1,17.4,28.78,SE,136,3.0,7.0,89,0.00,,,0.00,0,Wunderground v.1.15,2013-02-09 02:04:00,
2013-02-08 20:05:00,20.1,17.4,28.78,SW,216,2.0,10.0,89,0.00,,,0.00,0,Wunderground v.1.15,2013-02-09 02:05:00,
2013-02-08 20:09:00,20.1,17.4,28.79,SSW,207,4.0,10.0,89,0.00,,,0.00,0,Wunderground v.1.15,2013-02-09 02:09:00,
2013-02-08 20:10:00,20.1,17.4,28.79,SSW,212,3.0,10.0,89,0.00,,,0.00,0,Wunderground v.1.15,2013-02-09 02:10:00,
2013-02-08 20:15:00,20.3,17.6,28.78,SSE,167,5.0,12.0,89,0.00,,,0.00,0,Wunderground v.1.15,2013-02-09 02:15:00,
2013-02-08 20:16:00,20.4,17.7,28.78,South,173,5.0,12.0,89,0.00,,,0.00,0,Wunderground v.1.15,2013-02-09 02:16:00,
2013-02-08 20:20:00,20.5,17.8,28.78,SSW,193,9.0,12.0,89,0.00,,,0.00,0,Wunderground v.1.15,2013-02-09 02:20:00,
2013-02-08 20:21:00,20.5,17.8,28.78,SSE,167,2.0,9.0,89,0.00,,,0.00,0,Wunderground v.1.15,2013-02-09 02:21:00,
2013-02-08 20:51:00,20.5,17.8,28.77,SSW,206,4.0,4.0,89,0.00,,,0.00,0,Wunderground v.1.15,2013-02-09 02:51:00,
2013-02-08 20:52:00,20.4,17.7,28.77,South,179,0.0,9.0,89,0.00,,,0.00,0,Wunderground v.1.15,2013-02-09 02:52:00,
2013-02-08 20:56:00,20.3,17.6,28.76,South,176,7.0,9.0,89,0.00,,,0.00,0,Wunderground v.1.15,2013-02-09 02:56:00,
2013-02-08 20:57:00,20.4,17.7,28.77,South,190,3.0,11.0,89,0.00,,,0.00,0,Wunderground v.1.15,2013-02-09 02:57:00,
2013-02-08 21:04:00,20.4,17.7,28.76,SSW,197,8.0,8.0,89,0.00,,,0.00,0,Wunderground v.1.15,2013-02-09 03:04:00,
2013-02-08 21:05:00,20.4,17.7,28.76,SSE,156,7.0,8.0,89,0.00,,,0.00,0,Wunderground v.1.15,2013-02-09 03:05:00,
2013-02-08 21:10:00,20.4,17.7,28.76,SSW,205,8.0,9.0,89,0.00,,,0.00,0,Wunderground v.1.15,2013-02-09 03:10:00,
2013-02-08 21:16:00,20.4,17.7,28.76,SSW,212,2.0,15.0,89,0.00,,,0.00,0,Wunderground v.1.15,2013-02-09 03:16:00,
2013-02-08 21:21:00,20.2,17.5,28.76,South,177,4.0,8.0,89,0.00,,,0.00,0,Wunderground v.1.15,2013-02-09 03:21:00,
2013-02-08 21:26:00,20.1,17.4,28.76,SSE,162,2.0,11.0,89,0.00,,,0.00,0,Wunderground v.1.15,2013-02-09 03:26:00,
2013-02-08 21:31:00,20.1,17.4,28.76,SSW,205,0.0,2.0,89,0.00,,,0.00,0,Wunderground v.1.15,2013-02-09 03:31:00,
2013-02-08 21:33:00,20.0,17.0,28.76,South,171,0.0,6.0,88,0.00,,,0.00,0,Wunderground v.1.15,2013-02-09 03:33:00,
2013-02-08 21:36:00,20.0,17.3,28.76,SSW,194,3.0,6.0,89,0.00,,,0.00,0,Wunderground v.1.15,2013-02-09 03:36:00,
2013-02-08 21:37:00,20.0,17.3,28.76,South,176,2.0,6.0,89,0.00,,,0.00,0,Wunderground v.1.15,2013-02-09 03:37:00,
2013-02-08 21:38:00,20.0,17.3,28.76,SSW,209,1.0,7.0,89,0.00,,,0.00,0,Wunderground v.1.15,2013-02-09 03:38:00,
2013-02-08 21:41:00,20.0,17.0,28.76,SW,214,3.0,6.0,88,0.00,,,0.00,0,Wunderground v.1.15,2013-02-09 03:41:00,
2013-02-08 21:42:00,20.0,17.3,28.76,SSW,208,2.0,6.0,89,0.00,,,0.00,0,Wunderground v.1.15,2013-02-09 03:42:00,
2013-02-08 21:44:00,20.0,17.3,28.76,SSW,197,5.0,7.0,89,0.00,,,0.00,0,Wunderground v.1.15,2013-02-09 03:44:00,
2013-02-08 21:45:00,20.0,17.3,28.76,SW,216,3.0,7.0,89,0.00,,,0.00,0,Wunderground v.1.15,2013-02-09 03:45:00,
2013-02-08 21:46:00,20.0,17.3,28.76,SSW,201,0.0,7.0,89,0.00,,,0.00,0,Wunderground v.1.15,2013-02-09 03:46:00,
2013-02-08 21:47:00,20.0,17.3,28.76,South,174,1.0,7.0,89,0.00,,,0.00,0,Wunderground v.1.15,2013-02-09 03:47:00,
2013-02-08 21:49:00,20.0,17.3,28.76,SSW,206,1.0,7.0,89,0.00,,,0.00,0,Wunderground v.1.15,2013-02-09 03:49:00,
2013-02-08 21:50:00,20.0,17.3,28.76,SSW,204,0.0,7.0,89,0.00,,,0.00,0,Wunderground v.1.15,2013-02-09 03:50:00,
2013-02-08 21:52:00,20.0,17.3,28.76,South,186,1.0,3.0,89,0.00,,,0.00,0,Wunderground v.1.15,2013-02-09 03:52:00,
2013-02-08 21:55:00,20.0,17.3,28.76,SSW,195,0.0,7.0,89,0.00,,,0.00,0,Wunderground v.1.15,2013-02-09 03:55:00,
2013-02-08 21:57:00,20.0,17.3,28.75,South,171,2.0,7.0,89,0.00,,,0.00,0,Wunderground v.1.15,2013-02-09 03:57:00,
2013-02-08 21:58:00,19.9,17.2,28.75,South,181,0.0,7.0,89,0.00,,,0.00,0,Wunderground v.1.15,2013-02-09 03:58:00,
2013-02-08 22:00:00,19.9,17.2,28.75,SSE,166,3.0,7.0,89,0.00,,,0.00,0,Wunderground v.1.15,2013-02-09 04:00:00,
2013-02-08 22:01:00,20.0,17.3,28.75,SSE,160,5.0,11.0,89,0.00,,,0.00,0,Wunderground v.1.15,2013-02-09 04:01:00,
2013-02-08 22:02:00,20.0,17.3,28.76,SSE,160,1.0,11.0,89,0.00,,,0.00,0,Wunderground v.1.15,2013-02-09 04:02:00,
2013-02-08 22:03:00,19.9,17.2,28.75,South,182,1.0,11.0,89,0.00,,,0.00,0,Wunderground v.1.15,2013-02-09 04:03:00,
2013-02-08 22:22:00,20.1,17.4,28.75,SSE,153,4.0,6.0,89,0.00,,,0.00,0,Wunderground v.1.15,2013-02-09 04:22:00,
2013-02-08 22:27:00,20.1,17.4,28.75,SSW,192,3.0,13.0,89,0.00,,,0.00,0,Wunderground v.1.15,2013-02-09 04:27:00,
2013-02-08 22:28:00,20.1,17.4,28.75,South,169,3.0,13.0,89,0.00,,,0.00,0,Wunderground v.1.15,2013-02-09 04:28:00,
2013-02-08 22:44:00,20.1,17.4,28.74,SSE,156,3.0,11.0,89,0.00,,,0.00,0,Wunderground v.1.15,2013-02-09 04:44:00,
2013-02-08 22:53:00,20.0,17.3,28.74,SSW,193,1.0,4.0,89,0.00,,,0.00,0,Wunderground v.1.15,2013-02-09 04:53:00,
2013-02-08 22:56:00,20.0,17.3,28.74,South,189,8.0,14.0,89,0.00,,,0.00,0,Wunderground v.1.15,2013-02-09 04:56:00,
2013-02-08 22:57:00,20.0,17.3,28.74,SSE,166,4.0,14.0,89,0.00,,,0.00,0,Wunderground v.1.15,2013-02-09 04:57:00,
2013-02-08 23:01:00,20.0,17.3,28.74,South,169,2.0,2.0,89,0.00,,,0.00,0,Wunderground v.1.15,2013-02-09 05:01:00,
2013-02-08 23:06:00,19.9,17.2,28.73,South,178,5.0,16.0,89,0.00,,,0.00,0,Wunderground v.1.15,2013-02-09 05:06:00,
2013-02-08 23:07:00,19.9,17.2,28.73,SSW,210,7.0,16.0,89,0.00,,,0.00,0,Wunderground v.1.15,2013-02-09 05:07:00,
2013-02-08 23:11:00,20.0,17.3,28.74,SSW,199,6.0,7.0,89,0.00,,,0.00,0,Wunderground v.1.15,2013-02-09 05:11:00,
2013-02-08 23:12:00,20.0,17.5,28.73,SSW,200,12.0,12.0,90,0.00,,,0.00,0,Wunderground v.1.15,2013-02-09 05:12:00,
2013-02-08 23:17:00,20.1,17.6,28.73,SSW,209,9.0,13.0,90,0.00,,,0.00,0,Wunderground v.1.15,2013-02-09 05:17:00,
2013-02-08 23:18:00,20.1,17.6,28.73,SW,218,9.0,13.0,90,0.00,,,0.00,0,Wunderground v.1.15,2013-02-09 05:18:00,
2013-02-08 23:23:00,20.3,17.8,28.73,SSE,164,2.0,2.0,90,0.00,,,0.00,0,Wunderground v.1.15,2013-02-09 05:23:00,
2013-02-08 23:28:00,20.3,17.8,28.73,South,190,9.0,12.0,90,0.00,,,0.00,0,Wunderground v.1.15,2013-02-09 05:28:00,
2013-02-08 23:29:00,20.4,17.9,28.73,SSW,202,5.0,12.0,90,0.00,,,0.00,0,Wunderground v.1.15,2013-02-09 05:29:00,
2013-02-08 23:33:00,20.4,18.2,28.73,SW,217,2.0,7.0,91,0.00,,,0.00,0,Wunderground v.1.15,2013-02-09 05:33:00,
2013-02-08 23:34:00,20.4,18.2,28.73,SSW,208,9.0,9.0,91,0.00,,,0.00,0,Wunderground v.1.15,2013-02-09 05:34:00,
2013-02-08 23:36:00,20.5,18.3,28.73,SSW,196,3.0,11.0,91,0.00,,,0.00,0,Wunderground v.1.15,2013-02-09 05:36:00,
2013-02-08 23:39:00,20.5,18.3,28.72,South,184,3.0,11.0,91,0.00,,,0.00,0,Wunderground v.1.15,2013-02-09 05:39:00,
2013-02-08 23:41:00,20.6,18.4,28.72,SSE,168,4.0,11.0,91,0.00,,,0.00,0,Wunderground v.1.15,2013-02-09 05:41:00,
2013-02-08 23:42:00,20.6,18.4,28.72,South,182,9.0,11.0,91,0.00,,,0.00,0,Wunderground v.1.15,2013-02-09 05:42:00,
2013-02-08 23:44:00,20.6,18.4,28.73,SSW,198,8.0,9.0,91,0.00,,,0.00,0,Wunderground v.1.15,2013-02-09 05:44:00,
2013-02-08 23:45:00,20.6,18.4,28.72,SSW,210,2.0,9.0,91,0.00,,,0.00,0,Wunderground v.1.15,2013-02-09 05:45:00,
2013-02-08 23:46:00,20.6,18.4,28.72,SSW,192,3.0,10.0,91,0.00,,,0.00,0,Wunderground v.1.15,2013-02-09 05:46:00,
2013-02-08 23:47:00,20.6,18.6,28.72,SSW,204,8.0,11.0,92,0.00,,,0.00,0,Wunderground v.1.15,2013-02-09 05:47:00,
2013-02-08 23:49:00,20.6,18.4,28.72,SSW,206,12.0,12.0,91,0.00,,,0.00,0,Wunderground v.1.15,2013-02-09 05:49:00,
2013-02-08 23:53:00,20.6,18.6,28.72,South,169,3.0,5.0,92,0.00,,,0.00,0,Wunderground v.1.15,2013-02-09 05:53:00,
2013-02-08 23:54:00,20.6,18.6,28.72,SSW,199,4.0,7.0,92,0.00,,,0.00,0,Wunderground v.1.15,2013-02-09 05:54:00,
2013-02-08 23:58:00,20.6,18.6,28.72,SSE,161,9.0,10.0,92,0.00,,,0.00,0,Wunderground v.1.15,2013-02-09 05:58:00,
2013-02-08 23:59:00,20.6,18.6,28.72,South,185,9.0,10.0,92,0.00,,,0.00,0,Wunderground v.1.15,2013-02-09 05:59:00,